<?xml version="1.0" encoding="UTF-8"?>
<gpx version="1.1" creator="2bulu-scraper" xmlns="http://www.topografix.com/GPX/1/1">
  <metadata><name>资中猫儿寨</name><desc>source: 2bulu.com trackId=87248813; exported 2026-09-01T17:52:45.327Z</desc>
    <bounds minlat="29.666309" minlon="104.7174933" maxlat="29.6842384" maxlon="104.7439767"/>
    <link href="https://www.2bulu.com/track/t-WESJbY7vfJnp%252FR2KBg5Tzw%253D%253D.htm"><text>2bulu 源页面</text></link>
  </metadata>
  <wpt lat="29.6667884" lon="104.7303769"><ele>573</ele><name></name></wpt>
  <wpt lat="29.6668843" lon="104.7305864"><ele>564</ele><name></name></wpt>
  <wpt lat="29.6674562" lon="104.7346293"><ele>541</ele><name></name></wpt>
  <wpt lat="29.6673917" lon="104.7349967"><ele>532</ele><name></name></wpt>
  <wpt lat="29.6727635" lon="104.7437575"><ele>531</ele><name>临崖路段</name></wpt>
  <wpt lat="29.6784589" lon="104.7415384"><ele>508</ele><name></name></wpt>
  <wpt lat="29.6814964" lon="104.7384576"><ele>596</ele><name>五十三步云梯</name></wpt>
  <wpt lat="29.6822694" lon="104.7357342"><ele>641</ele><name></name></wpt>
  <wpt lat="29.6805727" lon="104.7349921"><ele>625</ele><name></name></wpt>
  <wpt lat="29.6810212" lon="104.7352152"><ele>624</ele><name>左下</name></wpt>
  <wpt lat="29.6800185" lon="104.7349932"><ele>609</ele><name></name></wpt>
  <wpt lat="29.6792074" lon="104.73416"><ele>601</ele><name>右上</name></wpt>
  <wpt lat="29.6787098" lon="104.7337394"><ele>614</ele><name></name></wpt>
  <wpt lat="29.6780387" lon="104.7311543"><ele>574</ele><name></name></wpt>
  <wpt lat="29.672969" lon="104.7198665"><ele>596</ele><name></name></wpt>
  <wpt lat="29.6692873" lon="104.7199661"><ele>586</ele><name></name></wpt>
  <wpt lat="29.6687007" lon="104.7241583"><ele>575</ele><name>起终点/临停</name></wpt>
  <trk><name>资中猫儿寨</name>
      <trkseg>
        <trkpt lat="29.6689" lon="104.72464"><ele>586.1</ele><time>2026-07-17T18:20:47.000Z</time></trkpt>
        <trkpt lat="29.6689633" lon="104.724715"><ele>586.1</ele><time>2026-07-17T18:21:41.000Z</time></trkpt>
        <trkpt lat="29.6689633" lon="104.724715"><ele>586.1</ele><time>2026-07-17T18:22:31.000Z</time></trkpt>
        <trkpt lat="29.669065" lon="104.724765"><ele>579.65</ele><time>2026-07-17T18:22:47.000Z</time></trkpt>
        <trkpt lat="29.669065" lon="104.724765"><ele>579.65</ele><time>2026-07-17T18:22:49.000Z</time></trkpt>
        <trkpt lat="29.6691433" lon="104.724825"><ele>575.71</ele><time>2026-07-17T18:23:03.000Z</time></trkpt>
        <trkpt lat="29.6692188" lon="104.7248892"><ele>573.69</ele><time>2026-07-17T18:23:15.000Z</time></trkpt>
        <trkpt lat="29.6692643" lon="104.7249954"><ele>573.22</ele><time>2026-07-17T18:23:27.000Z</time></trkpt>
        <trkpt lat="29.669284" lon="104.7251146"><ele>573.68</ele><time>2026-07-17T18:23:35.000Z</time></trkpt>
        <trkpt lat="29.6693154" lon="104.7252248"><ele>575.02</ele><time>2026-07-17T18:23:57.000Z</time></trkpt>
        <trkpt lat="29.6693344" lon="104.7253386"><ele>576.56</ele><time>2026-07-17T18:24:07.000Z</time></trkpt>
        <trkpt lat="29.6693783" lon="104.7254356"><ele>577.44</ele><time>2026-07-17T18:24:21.000Z</time></trkpt>
        <trkpt lat="29.6693897" lon="104.7255372"><ele>578.15</ele><time>2026-07-17T18:24:39.000Z</time></trkpt>
        <trkpt lat="29.6693897" lon="104.7255372"><ele>578.15</ele><time>2026-07-17T18:24:49.000Z</time></trkpt>
        <trkpt lat="29.6693634" lon="104.7256412"><ele>579.08</ele><time>2026-07-17T18:24:59.000Z</time></trkpt>
        <trkpt lat="29.6693634" lon="104.7256412"><ele>579.08</ele><time>2026-07-17T18:25:05.000Z</time></trkpt>
        <trkpt lat="29.669341" lon="104.7257499"><ele>580.98</ele><time>2026-07-17T18:25:47.000Z</time></trkpt>
        <trkpt lat="29.669341" lon="104.7257499"><ele>580.98</ele><time>2026-07-17T18:26:27.000Z</time></trkpt>
        <trkpt lat="29.6693267" lon="104.725855"><ele>586.54</ele><time>2026-07-17T18:26:35.000Z</time></trkpt>
        <trkpt lat="29.6693267" lon="104.725855"><ele>586.54</ele><time>2026-07-17T18:26:49.000Z</time></trkpt>
        <trkpt lat="29.6693983" lon="104.7259267"><ele>593.7</ele><time>2026-07-17T18:27:21.000Z</time></trkpt>
        <trkpt lat="29.66936" lon="104.7258686"><ele>599.68</ele><time>2026-07-17T18:28:09.000Z</time></trkpt>
        <trkpt lat="29.6693202" lon="104.7259278"><ele>604.68</ele><time>2026-07-17T18:28:37.000Z</time></trkpt>
        <trkpt lat="29.6692556" lon="104.7260066"><ele>610.15</ele><time>2026-07-17T18:28:53.000Z</time></trkpt>
        <trkpt lat="29.6691897" lon="104.7261108"><ele>614.56</ele><time>2026-07-17T18:29:05.000Z</time></trkpt>
        <trkpt lat="29.6691361" lon="104.7262231"><ele>617.24</ele><time>2026-07-17T18:29:15.000Z</time></trkpt>
        <trkpt lat="29.6690811" lon="104.7263253"><ele>618.47</ele><time>2026-07-17T18:29:27.000Z</time></trkpt>
        <trkpt lat="29.6690595" lon="104.7264395"><ele>618.79</ele><time>2026-07-17T18:29:37.000Z</time></trkpt>
        <trkpt lat="29.6690378" lon="104.7265562"><ele>618.96</ele><time>2026-07-17T18:29:51.000Z</time></trkpt>
        <trkpt lat="29.6690431" lon="104.7266742"><ele>618.81</ele><time>2026-07-17T18:30:03.000Z</time></trkpt>
        <trkpt lat="29.6690724" lon="104.7267758"><ele>618.16</ele><time>2026-07-17T18:30:19.000Z</time></trkpt>
        <trkpt lat="29.6690622" lon="104.7268898"><ele>618.43</ele><time>2026-07-17T18:30:41.000Z</time></trkpt>
        <trkpt lat="29.6690226" lon="104.7269889"><ele>618.72</ele><time>2026-07-17T18:30:55.000Z</time></trkpt>
        <trkpt lat="29.6689971" lon="104.7271036"><ele>618.8</ele><time>2026-07-17T18:31:05.000Z</time></trkpt>
        <trkpt lat="29.6689399" lon="104.727187"><ele>619.06</ele><time>2026-07-17T18:31:15.000Z</time></trkpt>
        <trkpt lat="29.6688753" lon="104.7272623"><ele>619.63</ele><time>2026-07-17T18:31:23.000Z</time></trkpt>
        <trkpt lat="29.6688286" lon="104.7273523"><ele>620.31</ele><time>2026-07-17T18:31:39.000Z</time></trkpt>
        <trkpt lat="29.6687574" lon="104.7274151"><ele>619.87</ele><time>2026-07-17T18:31:51.000Z</time></trkpt>
        <trkpt lat="29.6686745" lon="104.7274666"><ele>619.11</ele><time>2026-07-17T18:31:57.000Z</time></trkpt>
        <trkpt lat="29.668586" lon="104.7275278"><ele>618.63</ele><time>2026-07-17T18:32:09.000Z</time></trkpt>
        <trkpt lat="29.6685093" lon="104.7275915"><ele>618.75</ele><time>2026-07-17T18:32:19.000Z</time></trkpt>
        <trkpt lat="29.6684291" lon="104.7276787"><ele>618.51</ele><time>2026-07-17T18:32:31.000Z</time></trkpt>
        <trkpt lat="29.6684089" lon="104.7277859"><ele>617.56</ele><time>2026-07-17T18:32:41.000Z</time></trkpt>
        <trkpt lat="29.6683481" lon="104.7278689"><ele>617.06</ele><time>2026-07-17T18:32:53.000Z</time></trkpt>
        <trkpt lat="29.6683481" lon="104.7278689"><ele>617.06</ele><time>2026-07-17T18:33:00.000Z</time></trkpt>
        <trkpt lat="29.6681473" lon="104.728169"><ele>617.64</ele><time>2026-07-17T18:33:25.000Z</time></trkpt>
        <trkpt lat="29.6681473" lon="104.728169"><ele>617.64</ele><time>2026-07-17T18:33:31.000Z</time></trkpt>
        <trkpt lat="29.6680876" lon="104.7282103"><ele>620.2</ele><time>2026-07-17T18:33:45.000Z</time></trkpt>
        <trkpt lat="29.6679949" lon="104.7282519"><ele>622.48</ele><time>2026-07-17T18:33:53.000Z</time></trkpt>
        <trkpt lat="29.6679391" lon="104.7283437"><ele>624.21</ele><time>2026-07-17T18:34:05.000Z</time></trkpt>
        <trkpt lat="29.6678603" lon="104.7283416"><ele>623.6</ele><time>2026-07-17T18:34:15.000Z</time></trkpt>
        <trkpt lat="29.6677913" lon="104.7283917"><ele>623.21</ele><time>2026-07-17T18:34:27.000Z</time></trkpt>
        <trkpt lat="29.6678444" lon="104.7283922"><ele>622.26</ele><time>2026-07-17T18:35:21.000Z</time></trkpt>
        <trkpt lat="29.6679508" lon="104.7283436"><ele>619.27</ele><time>2026-07-17T18:35:35.000Z</time></trkpt>
        <trkpt lat="29.66807" lon="104.7283432"><ele>617.78</ele><time>2026-07-17T18:35:45.000Z</time></trkpt>
        <trkpt lat="29.6681385" lon="104.7284182"><ele>616.54</ele><time>2026-07-17T18:35:55.000Z</time></trkpt>
        <trkpt lat="29.6681543" lon="104.72843"><ele>614.89</ele><time>2026-07-17T18:36:03.000Z</time></trkpt>
        <trkpt lat="29.6681543" lon="104.72843"><ele>614.89</ele><time>2026-07-17T18:36:33.000Z</time></trkpt>
        <trkpt lat="29.6680763" lon="104.7284369"><ele>614.03</ele><time>2026-07-17T18:36:40.000Z</time></trkpt>
        <trkpt lat="29.6680763" lon="104.7284369"><ele>614.03</ele><time>2026-07-17T18:36:45.000Z</time></trkpt>
        <trkpt lat="29.667976" lon="104.7284142"><ele>612.73</ele><time>2026-07-17T18:36:55.000Z</time></trkpt>
        <trkpt lat="29.6679019" lon="104.7284805"><ele>612.54</ele><time>2026-07-17T18:37:07.000Z</time></trkpt>
        <trkpt lat="29.6678297" lon="104.7285577"><ele>613.13</ele><time>2026-07-17T18:37:15.000Z</time></trkpt>
        <trkpt lat="29.6677481" lon="104.7286137"><ele>613.24</ele><time>2026-07-17T18:37:31.000Z</time></trkpt>
        <trkpt lat="29.667646" lon="104.7286256"><ele>613.91</ele><time>2026-07-17T18:37:43.000Z</time></trkpt>
        <trkpt lat="29.6675409" lon="104.7286174"><ele>614.6</ele><time>2026-07-17T18:38:03.000Z</time></trkpt>
        <trkpt lat="29.6674451" lon="104.7286317"><ele>614.73</ele><time>2026-07-17T18:38:15.000Z</time></trkpt>
        <trkpt lat="29.6673524" lon="104.7286302"><ele>614.29</ele><time>2026-07-17T18:38:27.000Z</time></trkpt>
        <trkpt lat="29.6672595" lon="104.7286405"><ele>613.39</ele><time>2026-07-17T18:38:39.000Z</time></trkpt>
        <trkpt lat="29.667184" lon="104.7287024"><ele>612.27</ele><time>2026-07-17T18:38:53.000Z</time></trkpt>
        <trkpt lat="29.6671072" lon="104.7287703"><ele>611.08</ele><time>2026-07-17T18:39:05.000Z</time></trkpt>
        <trkpt lat="29.6670177" lon="104.72882"><ele>609.24</ele><time>2026-07-17T18:39:23.000Z</time></trkpt>
        <trkpt lat="29.6669469" lon="104.7288887"><ele>607.5</ele><time>2026-07-17T18:39:33.000Z</time></trkpt>
        <trkpt lat="29.6668972" lon="104.7289882"><ele>605.65</ele><time>2026-07-17T18:39:45.000Z</time></trkpt>
        <trkpt lat="29.6668205" lon="104.7290577"><ele>603.35</ele><time>2026-07-17T18:39:55.000Z</time></trkpt>
        <trkpt lat="29.6667563" lon="104.7291454"><ele>601.52</ele><time>2026-07-17T18:40:13.000Z</time></trkpt>
        <trkpt lat="29.6667085" lon="104.729249"><ele>600.26</ele><time>2026-07-17T18:40:23.000Z</time></trkpt>
        <trkpt lat="29.6666588" lon="104.7293463"><ele>598.99</ele><time>2026-07-17T18:40:33.000Z</time></trkpt>
        <trkpt lat="29.6665798" lon="104.7293938"><ele>597.66</ele><time>2026-07-17T18:40:43.000Z</time></trkpt>
        <trkpt lat="29.6665411" lon="104.7294803"><ele>596.17</ele><time>2026-07-17T18:41:03.000Z</time></trkpt>
        <trkpt lat="29.6665621" lon="104.7295761"><ele>595.15</ele><time>2026-07-17T18:41:15.000Z</time></trkpt>
        <trkpt lat="29.6666374" lon="104.7296382"><ele>594.01</ele><time>2026-07-17T18:41:29.000Z</time></trkpt>
        <trkpt lat="29.6666374" lon="104.7296382"><ele>594.01</ele><time>2026-07-17T18:42:11.000Z</time></trkpt>
        <trkpt lat="29.6666983" lon="104.7297234"><ele>592.2</ele><time>2026-07-17T18:42:12.000Z</time></trkpt>
        <trkpt lat="29.6666983" lon="104.7297234"><ele>592.2</ele><time>2026-07-17T18:42:17.000Z</time></trkpt>
        <trkpt lat="29.6667063" lon="104.7298259"><ele>590.57</ele><time>2026-07-17T18:42:57.000Z</time></trkpt>
        <trkpt lat="29.6667143" lon="104.7299416"><ele>587.96</ele><time>2026-07-17T18:43:11.000Z</time></trkpt>
        <trkpt lat="29.6667042" lon="104.730051"><ele>585.65</ele><time>2026-07-17T18:43:23.000Z</time></trkpt>
        <trkpt lat="29.6667285" lon="104.7301554"><ele>582.83</ele><time>2026-07-17T18:43:45.000Z</time></trkpt>
        <trkpt lat="29.6667644" lon="104.7302651"><ele>577.4</ele><time>2026-07-17T18:43:57.000Z</time></trkpt>
        <trkpt lat="29.6667884" lon="104.7303769"><ele>572.97</ele><time>2026-07-17T18:44:09.000Z</time></trkpt>
        <trkpt lat="29.6668332" lon="104.7304828"><ele>568.64</ele><time>2026-07-17T18:44:35.000Z</time></trkpt>
        <trkpt lat="29.6668843" lon="104.7305864"><ele>563.93</ele><time>2026-07-17T18:44:45.000Z</time></trkpt>
        <trkpt lat="29.6669591" lon="104.730668"><ele>560.39</ele><time>2026-07-17T18:45:11.000Z</time></trkpt>
        <trkpt lat="29.6670116" lon="104.7307569"><ele>557.77</ele><time>2026-07-17T18:45:17.000Z</time></trkpt>
        <trkpt lat="29.6670304" lon="104.7308096"><ele>556.06</ele><time>2026-07-17T18:45:19.000Z</time></trkpt>
        <trkpt lat="29.667027" lon="104.7308996"><ele>555</ele><time>2026-07-17T18:45:29.000Z</time></trkpt>
        <trkpt lat="29.6670364" lon="104.7310127"><ele>554.01</ele><time>2026-07-17T18:45:41.000Z</time></trkpt>
        <trkpt lat="29.6670339" lon="104.731131"><ele>552.63</ele><time>2026-07-17T18:45:57.000Z</time></trkpt>
        <trkpt lat="29.6669912" lon="104.7312344"><ele>551.33</ele><time>2026-07-17T18:46:03.000Z</time></trkpt>
        <trkpt lat="29.6669586" lon="104.7313449"><ele>550.07</ele><time>2026-07-17T18:46:13.000Z</time></trkpt>
        <trkpt lat="29.6669299" lon="104.7314581"><ele>548.36</ele><time>2026-07-17T18:46:23.000Z</time></trkpt>
        <trkpt lat="29.6668796" lon="104.7315508"><ele>546.83</ele><time>2026-07-17T18:46:31.000Z</time></trkpt>
        <trkpt lat="29.6668054" lon="104.7316394"><ele>546.21</ele><time>2026-07-17T18:46:39.000Z</time></trkpt>
        <trkpt lat="29.6667389" lon="104.7317263"><ele>546.42</ele><time>2026-07-17T18:46:49.000Z</time></trkpt>
        <trkpt lat="29.6666634" lon="104.7318132"><ele>546.63</ele><time>2026-07-17T18:46:59.000Z</time></trkpt>
        <trkpt lat="29.6666065" lon="104.7319044"><ele>546.66</ele><time>2026-07-17T18:47:07.000Z</time></trkpt>
        <trkpt lat="29.666561" lon="104.7320087"><ele>546.33</ele><time>2026-07-17T18:47:17.000Z</time></trkpt>
        <trkpt lat="29.6664916" lon="104.7320976"><ele>546.32</ele><time>2026-07-17T18:47:27.000Z</time></trkpt>
        <trkpt lat="29.6664275" lon="104.7321839"><ele>546.35</ele><time>2026-07-17T18:47:39.000Z</time></trkpt>
        <trkpt lat="29.6663775" lon="104.7322847"><ele>545.64</ele><time>2026-07-17T18:47:51.000Z</time></trkpt>
        <trkpt lat="29.6663377" lon="104.7323875"><ele>544.25</ele><time>2026-07-17T18:48:01.000Z</time></trkpt>
        <trkpt lat="29.6663235" lon="104.7325028"><ele>542.38</ele><time>2026-07-17T18:48:11.000Z</time></trkpt>
        <trkpt lat="29.666309" lon="104.7326036"><ele>540.11</ele><time>2026-07-17T18:48:29.000Z</time></trkpt>
        <trkpt lat="29.6663213" lon="104.7327118"><ele>537.27</ele><time>2026-07-17T18:48:49.000Z</time></trkpt>
        <trkpt lat="29.6663499" lon="104.7328244"><ele>535.95</ele><time>2026-07-17T18:48:59.000Z</time></trkpt>
        <trkpt lat="29.6663887" lon="104.7329309"><ele>535.11</ele><time>2026-07-17T18:49:09.000Z</time></trkpt>
        <trkpt lat="29.6664431" lon="104.7330397"><ele>533.64</ele><time>2026-07-17T18:49:19.000Z</time></trkpt>
        <trkpt lat="29.6664627" lon="104.7330806"><ele>531.56</ele><time>2026-07-17T18:49:31.000Z</time></trkpt>
        <trkpt lat="29.6664955" lon="104.7331618"><ele>530.2</ele><time>2026-07-17T18:49:49.000Z</time></trkpt>
        <trkpt lat="29.6665216" lon="104.7332652"><ele>529.81</ele><time>2026-07-17T18:50:03.000Z</time></trkpt>
        <trkpt lat="29.6665927" lon="104.7333639"><ele>530.32</ele><time>2026-07-17T18:50:55.000Z</time></trkpt>
        <trkpt lat="29.6666816" lon="104.7334207"><ele>531.78</ele><time>2026-07-17T18:51:11.000Z</time></trkpt>
        <trkpt lat="29.6667886" lon="104.7334355"><ele>533.03</ele><time>2026-07-17T18:51:29.000Z</time></trkpt>
        <trkpt lat="29.6668937" lon="104.733452"><ele>534.4</ele><time>2026-07-17T18:51:41.000Z</time></trkpt>
        <trkpt lat="29.6669884" lon="104.7334862"><ele>535.69</ele><time>2026-07-17T18:51:51.000Z</time></trkpt>
        <trkpt lat="29.6670933" lon="104.7335262"><ele>537.24</ele><time>2026-07-17T18:52:03.000Z</time></trkpt>
        <trkpt lat="29.6671945" lon="104.7335632"><ele>538.94</ele><time>2026-07-17T18:52:13.000Z</time></trkpt>
        <trkpt lat="29.6672887" lon="104.7335937"><ele>539.87</ele><time>2026-07-17T18:52:25.000Z</time></trkpt>
        <trkpt lat="29.667379" lon="104.7335968"><ele>540.7</ele><time>2026-07-17T18:52:47.000Z</time></trkpt>
        <trkpt lat="29.667472" lon="104.7335802"><ele>541.43</ele><time>2026-07-17T18:52:59.000Z</time></trkpt>
        <trkpt lat="29.6675739" lon="104.7335619"><ele>541.98</ele><time>2026-07-17T18:53:13.000Z</time></trkpt>
        <trkpt lat="29.6676653" lon="104.7335286"><ele>543.45</ele><time>2026-07-17T18:53:21.000Z</time></trkpt>
        <trkpt lat="29.6677575" lon="104.7334747"><ele>544.55</ele><time>2026-07-17T18:53:31.000Z</time></trkpt>
        <trkpt lat="29.6678227" lon="104.7333872"><ele>545.95</ele><time>2026-07-17T18:53:43.000Z</time></trkpt>
        <trkpt lat="29.6678657" lon="104.7332767"><ele>547.6</ele><time>2026-07-17T18:53:55.000Z</time></trkpt>
        <trkpt lat="29.6679396" lon="104.7332283"><ele>550.23</ele><time>2026-07-17T18:54:07.000Z</time></trkpt>
        <trkpt lat="29.6680294" lon="104.7332154"><ele>552.84</ele><time>2026-07-17T18:54:15.000Z</time></trkpt>
        <trkpt lat="29.6681207" lon="104.7331772"><ele>554.89</ele><time>2026-07-17T18:54:27.000Z</time></trkpt>
        <trkpt lat="29.668225" lon="104.7331556"><ele>556.57</ele><time>2026-07-17T18:54:39.000Z</time></trkpt>
        <trkpt lat="29.6683197" lon="104.7331711"><ele>557.92</ele><time>2026-07-17T18:54:53.000Z</time></trkpt>
        <trkpt lat="29.668416" lon="104.7331855"><ele>558.64</ele><time>2026-07-17T18:55:23.000Z</time></trkpt>
        <trkpt lat="29.6685015" lon="104.7332331"><ele>558.32</ele><time>2026-07-17T18:55:37.000Z</time></trkpt>
        <trkpt lat="29.6685868" lon="104.7332741"><ele>558.83</ele><time>2026-07-17T18:55:49.000Z</time></trkpt>
        <trkpt lat="29.6686662" lon="104.7333252"><ele>559.89</ele><time>2026-07-17T18:56:03.000Z</time></trkpt>
        <trkpt lat="29.6687062" lon="104.7334153"><ele>561.1</ele><time>2026-07-17T18:56:15.000Z</time></trkpt>
        <trkpt lat="29.6687223" lon="104.7335274"><ele>561.92</ele><time>2026-07-17T18:56:31.000Z</time></trkpt>
        <trkpt lat="29.6687772" lon="104.7336348"><ele>562.34</ele><time>2026-07-17T18:56:47.000Z</time></trkpt>
        <trkpt lat="29.668736" lon="104.733719"><ele>562.28</ele><time>2026-07-17T18:57:13.000Z</time></trkpt>
        <trkpt lat="29.6686528" lon="104.7337711"><ele>561.6</ele><time>2026-07-17T18:57:21.000Z</time></trkpt>
        <trkpt lat="29.6685641" lon="104.7338309"><ele>561.6</ele><time>2026-07-17T18:57:33.000Z</time></trkpt>
        <trkpt lat="29.6684646" lon="104.7338881"><ele>560.95</ele><time>2026-07-17T18:58:09.000Z</time></trkpt>
        <trkpt lat="29.6683714" lon="104.7339438"><ele>559.3</ele><time>2026-07-17T18:58:33.000Z</time></trkpt>
        <trkpt lat="29.6682864" lon="104.7340208"><ele>557.1</ele><time>2026-07-17T18:59:01.000Z</time></trkpt>
        <trkpt lat="29.668204" lon="104.7340745"><ele>555.08</ele><time>2026-07-17T18:59:09.000Z</time></trkpt>
        <trkpt lat="29.6681263" lon="104.7341514"><ele>553.24</ele><time>2026-07-17T18:59:19.000Z</time></trkpt>
        <trkpt lat="29.6680451" lon="104.7342388"><ele>551.85</ele><time>2026-07-17T18:59:29.000Z</time></trkpt>
        <trkpt lat="29.6679522" lon="104.7343103"><ele>550.19</ele><time>2026-07-17T18:59:39.000Z</time></trkpt>
        <trkpt lat="29.6678551" lon="104.7343562"><ele>548.9</ele><time>2026-07-17T18:59:49.000Z</time></trkpt>
        <trkpt lat="29.6677596" lon="104.7344081"><ele>547.4</ele><time>2026-07-17T18:59:59.000Z</time></trkpt>
        <trkpt lat="29.6676528" lon="104.7344324"><ele>546.02</ele><time>2026-07-17T19:00:07.000Z</time></trkpt>
        <trkpt lat="29.6675595" lon="104.734461"><ele>544.68</ele><time>2026-07-17T19:00:15.000Z</time></trkpt>
        <trkpt lat="29.6675095" lon="104.7345442"><ele>543.23</ele><time>2026-07-17T19:00:31.000Z</time></trkpt>
        <trkpt lat="29.6674562" lon="104.7346293"><ele>541.28</ele><time>2026-07-17T19:00:45.000Z</time></trkpt>
        <trkpt lat="29.6674562" lon="104.7346293"><ele>541.28</ele><time>2026-07-17T19:02:26.000Z</time></trkpt>
        <trkpt lat="29.6674667" lon="104.7348883"><ele>539.18</ele><time>2026-07-17T19:02:30.000Z</time></trkpt>
        <trkpt lat="29.6674667" lon="104.7348883"><ele>539.18</ele><time>2026-07-17T19:03:05.000Z</time></trkpt>
        <trkpt lat="29.6674667" lon="104.7348883"><ele>539.18</ele><time>2026-07-17T19:03:47.000Z</time></trkpt>
        <trkpt lat="29.6673917" lon="104.7349967"><ele>536.18</ele><time>2026-07-17T19:04:30.000Z</time></trkpt>
        <trkpt lat="29.6673917" lon="104.7349967"><ele>536.18</ele><time>2026-07-17T19:04:43.000Z</time></trkpt>
        <trkpt lat="29.6673367" lon="104.7350883"><ele>534.68</ele><time>2026-07-17T19:05:01.000Z</time></trkpt>
        <trkpt lat="29.6673338" lon="104.7351899"><ele>534.35</ele><time>2026-07-17T19:05:51.000Z</time></trkpt>
        <trkpt lat="29.6673261" lon="104.7353022"><ele>537.21</ele><time>2026-07-17T19:06:03.000Z</time></trkpt>
        <trkpt lat="29.6673999" lon="104.7353451"><ele>539.91</ele><time>2026-07-17T19:06:25.000Z</time></trkpt>
        <trkpt lat="29.6674862" lon="104.735394"><ele>543.18</ele><time>2026-07-17T19:06:37.000Z</time></trkpt>
        <trkpt lat="29.6674736" lon="104.7354656"><ele>545.73</ele><time>2026-07-17T19:07:23.000Z</time></trkpt>
        <trkpt lat="29.6674226" lon="104.7355482"><ele>548.08</ele><time>2026-07-17T19:07:39.000Z</time></trkpt>
        <trkpt lat="29.6673964" lon="104.7356495"><ele>549.9</ele><time>2026-07-17T19:07:49.000Z</time></trkpt>
        <trkpt lat="29.6674458" lon="104.7357404"><ele>550.93</ele><time>2026-07-17T19:08:05.000Z</time></trkpt>
        <trkpt lat="29.6675211" lon="104.7358135"><ele>551.26</ele><time>2026-07-17T19:08:15.000Z</time></trkpt>
        <trkpt lat="29.6676122" lon="104.7358775"><ele>550.85</ele><time>2026-07-17T19:08:23.000Z</time></trkpt>
        <trkpt lat="29.6677032" lon="104.7359364"><ele>550.01</ele><time>2026-07-17T19:08:39.000Z</time></trkpt>
        <trkpt lat="29.6678027" lon="104.7359506"><ele>549.32</ele><time>2026-07-17T19:08:53.000Z</time></trkpt>
        <trkpt lat="29.6679051" lon="104.7359518"><ele>546.86</ele><time>2026-07-17T19:09:03.000Z</time></trkpt>
        <trkpt lat="29.6679298" lon="104.7360375"><ele>545.07</ele><time>2026-07-17T19:09:21.000Z</time></trkpt>
        <trkpt lat="29.6679716" lon="104.7361413"><ele>542.16</ele><time>2026-07-17T19:09:35.000Z</time></trkpt>
        <trkpt lat="29.6680248" lon="104.7362533"><ele>538.95</ele><time>2026-07-17T19:09:47.000Z</time></trkpt>
        <trkpt lat="29.6680243" lon="104.7363616"><ele>536.65</ele><time>2026-07-17T19:10:03.000Z</time></trkpt>
        <trkpt lat="29.6679616" lon="104.736463"><ele>535.81</ele><time>2026-07-17T19:10:13.000Z</time></trkpt>
        <trkpt lat="29.6678954" lon="104.7365609"><ele>536.37</ele><time>2026-07-17T19:10:23.000Z</time></trkpt>
        <trkpt lat="29.6678241" lon="104.7366438"><ele>536.72</ele><time>2026-07-17T19:10:33.000Z</time></trkpt>
        <trkpt lat="29.6678088" lon="104.7366637"><ele>537.19</ele><time>2026-07-17T19:10:41.000Z</time></trkpt>
        <trkpt lat="29.6677545" lon="104.7367067"><ele>536.55</ele><time>2026-07-17T19:10:55.000Z</time></trkpt>
        <trkpt lat="29.6676912" lon="104.7367882"><ele>537</ele><time>2026-07-17T19:11:39.000Z</time></trkpt>
        <trkpt lat="29.6676833" lon="104.7368922"><ele>539.62</ele><time>2026-07-17T19:11:51.000Z</time></trkpt>
        <trkpt lat="29.6677442" lon="104.7369764"><ele>541.98</ele><time>2026-07-17T19:12:07.000Z</time></trkpt>
        <trkpt lat="29.6678153" lon="104.7370663"><ele>545</ele><time>2026-07-17T19:12:19.000Z</time></trkpt>
        <trkpt lat="29.6678525" lon="104.7371683"><ele>547.71</ele><time>2026-07-17T19:12:29.000Z</time></trkpt>
        <trkpt lat="29.6678902" lon="104.7372806"><ele>549.68</ele><time>2026-07-17T19:12:43.000Z</time></trkpt>
        <trkpt lat="29.6678902" lon="104.7372806"><ele>549.68</ele><time>2026-07-17T19:13:18.000Z</time></trkpt>
        <trkpt lat="29.667895" lon="104.737395"><ele>550.55</ele><time>2026-07-17T19:14:02.000Z</time></trkpt>
        <trkpt lat="29.667895" lon="104.737395"><ele>550.55</ele><time>2026-07-17T19:14:07.000Z</time></trkpt>
        <trkpt lat="29.6679117" lon="104.7374967"><ele>549.11</ele><time>2026-07-17T19:14:17.000Z</time></trkpt>
        <trkpt lat="29.667941" lon="104.7376138"><ele>548.89</ele><time>2026-07-17T19:14:29.000Z</time></trkpt>
        <trkpt lat="29.6680164" lon="104.7376862"><ele>549.63</ele><time>2026-07-17T19:14:43.000Z</time></trkpt>
        <trkpt lat="29.6681149" lon="104.7376994"><ele>550.26</ele><time>2026-07-17T19:14:57.000Z</time></trkpt>
        <trkpt lat="29.6682128" lon="104.7376688"><ele>551.35</ele><time>2026-07-17T19:15:09.000Z</time></trkpt>
        <trkpt lat="29.6683117" lon="104.7376272"><ele>552.28</ele><time>2026-07-17T19:15:19.000Z</time></trkpt>
        <trkpt lat="29.6684144" lon="104.7376227"><ele>553.49</ele><time>2026-07-17T19:15:27.000Z</time></trkpt>
        <trkpt lat="29.6684075" lon="104.7377101"><ele>554.57</ele><time>2026-07-17T19:15:39.000Z</time></trkpt>
        <trkpt lat="29.6683462" lon="104.7378081"><ele>555.27</ele><time>2026-07-17T19:15:49.000Z</time></trkpt>
        <trkpt lat="29.6682781" lon="104.7379197"><ele>556.1</ele><time>2026-07-17T19:15:59.000Z</time></trkpt>
        <trkpt lat="29.6682185" lon="104.738023"><ele>555.93</ele><time>2026-07-17T19:16:09.000Z</time></trkpt>
        <trkpt lat="29.6681582" lon="104.7381257"><ele>555.36</ele><time>2026-07-17T19:16:19.000Z</time></trkpt>
        <trkpt lat="29.6681577" lon="104.7382373"><ele>554.21</ele><time>2026-07-17T19:16:29.000Z</time></trkpt>
        <trkpt lat="29.6682326" lon="104.7382979"><ele>553.09</ele><time>2026-07-17T19:16:51.000Z</time></trkpt>
        <trkpt lat="29.6683346" lon="104.7383091"><ele>551.98</ele><time>2026-07-17T19:16:59.000Z</time></trkpt>
        <trkpt lat="29.6684509" lon="104.7382821"><ele>551</ele><time>2026-07-17T19:17:13.000Z</time></trkpt>
        <trkpt lat="29.6685642" lon="104.7382601"><ele>549.23</ele><time>2026-07-17T19:17:23.000Z</time></trkpt>
        <trkpt lat="29.6686682" lon="104.7382105"><ele>547.93</ele><time>2026-07-17T19:17:33.000Z</time></trkpt>
        <trkpt lat="29.6687586" lon="104.7381513"><ele>546.71</ele><time>2026-07-17T19:17:43.000Z</time></trkpt>
        <trkpt lat="29.6688549" lon="104.7381514"><ele>545.89</ele><time>2026-07-17T19:17:55.000Z</time></trkpt>
        <trkpt lat="29.6688964" lon="104.7382314"><ele>545.85</ele><time>2026-07-17T19:18:03.000Z</time></trkpt>
        <trkpt lat="29.6689016" lon="104.7383445"><ele>546.86</ele><time>2026-07-17T19:18:15.000Z</time></trkpt>
        <trkpt lat="29.6688377" lon="104.7384341"><ele>548.51</ele><time>2026-07-17T19:18:25.000Z</time></trkpt>
        <trkpt lat="29.6687934" lon="104.7385355"><ele>549.97</ele><time>2026-07-17T19:18:35.000Z</time></trkpt>
        <trkpt lat="29.6687682" lon="104.738586"><ele>551.14</ele><time>2026-07-17T19:18:39.000Z</time></trkpt>
        <trkpt lat="29.668742" lon="104.7386692"><ele>551.86</ele><time>2026-07-17T19:18:53.000Z</time></trkpt>
        <trkpt lat="29.6687216" lon="104.738774"><ele>552.52</ele><time>2026-07-17T19:19:09.000Z</time></trkpt>
        <trkpt lat="29.668771" lon="104.738861"><ele>554.06</ele><time>2026-07-17T19:19:31.000Z</time></trkpt>
        <trkpt lat="29.6688493" lon="104.7389286"><ele>556.31</ele><time>2026-07-17T19:19:51.000Z</time></trkpt>
        <trkpt lat="29.6689431" lon="104.7389267"><ele>558.8</ele><time>2026-07-17T19:20:21.000Z</time></trkpt>
        <trkpt lat="29.6689686" lon="104.7388392"><ele>561</ele><time>2026-07-17T19:20:37.000Z</time></trkpt>
        <trkpt lat="29.6690403" lon="104.7388062"><ele>562.98</ele><time>2026-07-17T19:20:57.000Z</time></trkpt>
        <trkpt lat="29.669111" lon="104.7388665"><ele>565.7</ele><time>2026-07-17T19:21:07.000Z</time></trkpt>
        <trkpt lat="29.6691676" lon="104.7389717"><ele>568.02</ele><time>2026-07-17T19:21:19.000Z</time></trkpt>
        <trkpt lat="29.6692271" lon="104.7390836"><ele>570.21</ele><time>2026-07-17T19:21:31.000Z</time></trkpt>
        <trkpt lat="29.6692793" lon="104.7391879"><ele>571.24</ele><time>2026-07-17T19:21:41.000Z</time></trkpt>
        <trkpt lat="29.6693064" lon="104.7393002"><ele>571.78</ele><time>2026-07-17T19:21:51.000Z</time></trkpt>
        <trkpt lat="29.6693297" lon="104.7394219"><ele>571.96</ele><time>2026-07-17T19:22:01.000Z</time></trkpt>
        <trkpt lat="29.6693596" lon="104.7395345"><ele>572.02</ele><time>2026-07-17T19:22:11.000Z</time></trkpt>
        <trkpt lat="29.6693979" lon="104.7396403"><ele>571.62</ele><time>2026-07-17T19:22:19.000Z</time></trkpt>
        <trkpt lat="29.6694595" lon="104.7397336"><ele>571.18</ele><time>2026-07-17T19:22:29.000Z</time></trkpt>
        <trkpt lat="29.6695205" lon="104.7398238"><ele>570.8</ele><time>2026-07-17T19:22:39.000Z</time></trkpt>
        <trkpt lat="29.6695886" lon="104.7399112"><ele>570.97</ele><time>2026-07-17T19:22:51.000Z</time></trkpt>
        <trkpt lat="29.6696648" lon="104.7398806"><ele>571.5</ele><time>2026-07-17T19:23:03.000Z</time></trkpt>
        <trkpt lat="29.6697545" lon="104.7398199"><ele>572.23</ele><time>2026-07-17T19:23:17.000Z</time></trkpt>
        <trkpt lat="29.6698381" lon="104.7397511"><ele>573.21</ele><time>2026-07-17T19:23:29.000Z</time></trkpt>
        <trkpt lat="29.6699222" lon="104.739687"><ele>574.93</ele><time>2026-07-17T19:23:41.000Z</time></trkpt>
        <trkpt lat="29.6700099" lon="104.7396292"><ele>575.65</ele><time>2026-07-17T19:23:51.000Z</time></trkpt>
        <trkpt lat="29.6701024" lon="104.7396014"><ele>576.1</ele><time>2026-07-17T19:24:01.000Z</time></trkpt>
        <trkpt lat="29.670204" lon="104.7396038"><ele>576.31</ele><time>2026-07-17T19:24:11.000Z</time></trkpt>
        <trkpt lat="29.6703047" lon="104.7396308"><ele>576.78</ele><time>2026-07-17T19:24:21.000Z</time></trkpt>
        <trkpt lat="29.6703993" lon="104.7396719"><ele>577.52</ele><time>2026-07-17T19:24:31.000Z</time></trkpt>
        <trkpt lat="29.6704963" lon="104.7397118"><ele>578.59</ele><time>2026-07-17T19:24:41.000Z</time></trkpt>
        <trkpt lat="29.6705895" lon="104.7397603"><ele>579.32</ele><time>2026-07-17T19:24:51.000Z</time></trkpt>
        <trkpt lat="29.6706673" lon="104.7398398"><ele>580.3</ele><time>2026-07-17T19:25:03.000Z</time></trkpt>
        <trkpt lat="29.6707448" lon="104.7399069"><ele>582.54</ele><time>2026-07-17T19:25:15.000Z</time></trkpt>
        <trkpt lat="29.6708381" lon="104.7399434"><ele>584.76</ele><time>2026-07-17T19:25:25.000Z</time></trkpt>
        <trkpt lat="29.6709239" lon="104.7399821"><ele>586.45</ele><time>2026-07-17T19:25:37.000Z</time></trkpt>
        <trkpt lat="29.6709964" lon="104.740063"><ele>587.55</ele><time>2026-07-17T19:25:49.000Z</time></trkpt>
        <trkpt lat="29.6710353" lon="104.7401663"><ele>588.3</ele><time>2026-07-17T19:26:07.000Z</time></trkpt>
        <trkpt lat="29.6710715" lon="104.7402757"><ele>588.73</ele><time>2026-07-17T19:26:21.000Z</time></trkpt>
        <trkpt lat="29.6711264" lon="104.7403613"><ele>588.72</ele><time>2026-07-17T19:26:31.000Z</time></trkpt>
        <trkpt lat="29.6711934" lon="104.7404504"><ele>587.81</ele><time>2026-07-17T19:26:41.000Z</time></trkpt>
        <trkpt lat="29.6712493" lon="104.7405488"><ele>586.38</ele><time>2026-07-17T19:26:51.000Z</time></trkpt>
        <trkpt lat="29.6713067" lon="104.7406369"><ele>584.33</ele><time>2026-07-17T19:27:01.000Z</time></trkpt>
        <trkpt lat="29.6713435" lon="104.740722"><ele>582.47</ele><time>2026-07-17T19:27:13.000Z</time></trkpt>
        <trkpt lat="29.671379" lon="104.7408238"><ele>581.28</ele><time>2026-07-17T19:27:23.000Z</time></trkpt>
        <trkpt lat="29.671414" lon="104.7409309"><ele>580.34</ele><time>2026-07-17T19:27:35.000Z</time></trkpt>
        <trkpt lat="29.6714607" lon="104.7410316"><ele>579.12</ele><time>2026-07-17T19:27:45.000Z</time></trkpt>
        <trkpt lat="29.6715183" lon="104.7411218"><ele>578.25</ele><time>2026-07-17T19:27:57.000Z</time></trkpt>
        <trkpt lat="29.6715745" lon="104.7412068"><ele>577.37</ele><time>2026-07-17T19:28:11.000Z</time></trkpt>
        <trkpt lat="29.6716406" lon="104.7412894"><ele>576.26</ele><time>2026-07-17T19:28:23.000Z</time></trkpt>
        <trkpt lat="29.6717036" lon="104.7413741"><ele>574.77</ele><time>2026-07-17T19:28:43.000Z</time></trkpt>
        <trkpt lat="29.6717699" lon="104.7414575"><ele>571.47</ele><time>2026-07-17T19:28:57.000Z</time></trkpt>
        <trkpt lat="29.6718346" lon="104.7415405"><ele>568.09</ele><time>2026-07-17T19:29:11.000Z</time></trkpt>
        <trkpt lat="29.6718934" lon="104.7416374"><ele>564.82</ele><time>2026-07-17T19:29:31.000Z</time></trkpt>
        <trkpt lat="29.671935" lon="104.7417369"><ele>562.32</ele><time>2026-07-17T19:29:41.000Z</time></trkpt>
        <trkpt lat="29.6719592" lon="104.7418491"><ele>561.06</ele><time>2026-07-17T19:29:57.000Z</time></trkpt>
        <trkpt lat="29.6719758" lon="104.7419555"><ele>559.62</ele><time>2026-07-17T19:30:09.000Z</time></trkpt>
        <trkpt lat="29.6720349" lon="104.7420249"><ele>558.66</ele><time>2026-07-17T19:30:59.000Z</time></trkpt>
        <trkpt lat="29.6721195" lon="104.7420594"><ele>557.26</ele><time>2026-07-17T19:31:15.000Z</time></trkpt>
        <trkpt lat="29.6722131" lon="104.7420817"><ele>555.38</ele><time>2026-07-17T19:31:43.000Z</time></trkpt>
        <trkpt lat="29.6722963" lon="104.7421352"><ele>551.78</ele><time>2026-07-17T19:32:07.000Z</time></trkpt>
        <trkpt lat="29.672344" lon="104.7422247"><ele>547.74</ele><time>2026-07-17T19:32:23.000Z</time></trkpt>
        <trkpt lat="29.6723872" lon="104.7423282"><ele>544.76</ele><time>2026-07-17T19:32:37.000Z</time></trkpt>
        <trkpt lat="29.6724179" lon="104.742447"><ele>542.28</ele><time>2026-07-17T19:32:49.000Z</time></trkpt>
        <trkpt lat="29.6724353" lon="104.7425607"><ele>540.44</ele><time>2026-07-17T19:32:59.000Z</time></trkpt>
        <trkpt lat="29.6724541" lon="104.7426706"><ele>539.39</ele><time>2026-07-17T19:33:09.000Z</time></trkpt>
        <trkpt lat="29.6724774" lon="104.7427847"><ele>538.28</ele><time>2026-07-17T19:33:21.000Z</time></trkpt>
        <trkpt lat="29.6725054" lon="104.7428914"><ele>538.03</ele><time>2026-07-17T19:33:33.000Z</time></trkpt>
        <trkpt lat="29.6725479" lon="104.7429963"><ele>537.71</ele><time>2026-07-17T19:33:53.000Z</time></trkpt>
        <trkpt lat="29.6725679" lon="104.7431096"><ele>536.38</ele><time>2026-07-17T19:34:07.000Z</time></trkpt>
        <trkpt lat="29.6725863" lon="104.7432149"><ele>535.18</ele><time>2026-07-17T19:34:23.000Z</time></trkpt>
        <trkpt lat="29.6726211" lon="104.7433232"><ele>533.43</ele><time>2026-07-17T19:34:43.000Z</time></trkpt>
        <trkpt lat="29.6726662" lon="104.7434265"><ele>531.65</ele><time>2026-07-17T19:34:57.000Z</time></trkpt>
        <trkpt lat="29.6726994" lon="104.7435431"><ele>530.94</ele><time>2026-07-17T19:35:37.000Z</time></trkpt>
        <trkpt lat="29.6727411" lon="104.7436472"><ele>531.1</ele><time>2026-07-17T19:35:51.000Z</time></trkpt>
        <trkpt lat="29.6727635" lon="104.7437575"><ele>530.84</ele><time>2026-07-17T19:36:03.000Z</time></trkpt>
        <trkpt lat="29.6727635" lon="104.7437575"><ele>530.84</ele><time>2026-07-17T19:36:42.000Z</time></trkpt>
        <trkpt lat="29.6728098" lon="104.7438516"><ele>529.92</ele><time>2026-07-17T19:36:44.000Z</time></trkpt>
        <trkpt lat="29.6728098" lon="104.7438516"><ele>529.92</ele><time>2026-07-17T19:36:53.000Z</time></trkpt>
        <trkpt lat="29.6728833" lon="104.7439233"><ele>527.98</ele><time>2026-07-17T19:37:33.000Z</time></trkpt>
        <trkpt lat="29.6728833" lon="104.7439233"><ele>527.98</ele><time>2026-07-17T19:38:32.000Z</time></trkpt>
        <trkpt lat="29.67298" lon="104.743875"><ele>523.34</ele><time>2026-07-17T19:39:02.000Z</time></trkpt>
        <trkpt lat="29.67298" lon="104.743875"><ele>523.34</ele><time>2026-07-17T19:39:15.000Z</time></trkpt>
        <trkpt lat="29.6730717" lon="104.74391"><ele>515.49</ele><time>2026-07-17T19:40:29.000Z</time></trkpt>
        <trkpt lat="29.6731467" lon="104.7439767"><ele>506.89</ele><time>2026-07-17T19:41:07.000Z</time></trkpt>
        <trkpt lat="29.6731467" lon="104.7439767"><ele>506.89</ele><time>2026-07-17T19:41:40.000Z</time></trkpt>
        <trkpt lat="29.6731317" lon="104.74387"><ele>500.62</ele><time>2026-07-17T19:42:04.000Z</time></trkpt>
        <trkpt lat="29.6731317" lon="104.74387"><ele>500.62</ele><time>2026-07-17T19:42:15.000Z</time></trkpt>
        <trkpt lat="29.6732217" lon="104.7438417"><ele>493.55</ele><time>2026-07-17T19:42:59.000Z</time></trkpt>
        <trkpt lat="29.6733117" lon="104.7438599"><ele>487.16</ele><time>2026-07-17T19:43:29.000Z</time></trkpt>
        <trkpt lat="29.6733708" lon="104.7439339"><ele>483.22</ele><time>2026-07-17T19:43:57.000Z</time></trkpt>
        <trkpt lat="29.6734228" lon="104.7438839"><ele>479.21</ele><time>2026-07-17T19:44:27.000Z</time></trkpt>
        <trkpt lat="29.6734856" lon="104.7439234"><ele>475.64</ele><time>2026-07-17T19:44:47.000Z</time></trkpt>
        <trkpt lat="29.6735624" lon="104.7439034"><ele>472.22</ele><time>2026-07-17T19:45:01.000Z</time></trkpt>
        <trkpt lat="29.6736544" lon="104.7438918"><ele>468.77</ele><time>2026-07-17T19:45:19.000Z</time></trkpt>
        <trkpt lat="29.6737399" lon="104.7439265"><ele>466.55</ele><time>2026-07-17T19:45:35.000Z</time></trkpt>
        <trkpt lat="29.6738319" lon="104.7439587"><ele>465.02</ele><time>2026-07-17T19:45:43.000Z</time></trkpt>
        <trkpt lat="29.6739235" lon="104.7439626"><ele>463.51</ele><time>2026-07-17T19:45:55.000Z</time></trkpt>
        <trkpt lat="29.6740219" lon="104.7439415"><ele>463.07</ele><time>2026-07-17T19:46:09.000Z</time></trkpt>
        <trkpt lat="29.6741051" lon="104.7438846"><ele>463.17</ele><time>2026-07-17T19:46:27.000Z</time></trkpt>
        <trkpt lat="29.6742035" lon="104.7438503"><ele>462.71</ele><time>2026-07-17T19:46:43.000Z</time></trkpt>
        <trkpt lat="29.6743004" lon="104.7437998"><ele>463.27</ele><time>2026-07-17T19:46:55.000Z</time></trkpt>
        <trkpt lat="29.6743738" lon="104.7437211"><ele>462.55</ele><time>2026-07-17T19:47:07.000Z</time></trkpt>
        <trkpt lat="29.6744183" lon="104.7436156"><ele>461.15</ele><time>2026-07-17T19:47:19.000Z</time></trkpt>
        <trkpt lat="29.6744961" lon="104.7435438"><ele>460.18</ele><time>2026-07-17T19:47:29.000Z</time></trkpt>
        <trkpt lat="29.6745832" lon="104.7434819"><ele>459.5</ele><time>2026-07-17T19:47:37.000Z</time></trkpt>
        <trkpt lat="29.6746693" lon="104.7434231"><ele>459.59</ele><time>2026-07-17T19:47:47.000Z</time></trkpt>
        <trkpt lat="29.6747666" lon="104.7433559"><ele>460.28</ele><time>2026-07-17T19:47:59.000Z</time></trkpt>
        <trkpt lat="29.6748515" lon="104.74329"><ele>461.88</ele><time>2026-07-17T19:48:09.000Z</time></trkpt>
        <trkpt lat="29.6749297" lon="104.7432023"><ele>463.78</ele><time>2026-07-17T19:48:17.000Z</time></trkpt>
        <trkpt lat="29.6749919" lon="104.7431052"><ele>465.68</ele><time>2026-07-17T19:48:27.000Z</time></trkpt>
        <trkpt lat="29.6750688" lon="104.7430436"><ele>467.8</ele><time>2026-07-17T19:48:37.000Z</time></trkpt>
        <trkpt lat="29.6751009" lon="104.742976"><ele>470.38</ele><time>2026-07-17T19:48:49.000Z</time></trkpt>
        <trkpt lat="29.675174" lon="104.7429112"><ele>473.01</ele><time>2026-07-17T19:49:03.000Z</time></trkpt>
        <trkpt lat="29.6752619" lon="104.7428645"><ele>475.8</ele><time>2026-07-17T19:49:17.000Z</time></trkpt>
        <trkpt lat="29.6753292" lon="104.7427891"><ele>478.21</ele><time>2026-07-17T19:49:35.000Z</time></trkpt>
        <trkpt lat="29.6754139" lon="104.7427595"><ele>479.71</ele><time>2026-07-17T19:49:47.000Z</time></trkpt>
        <trkpt lat="29.6755042" lon="104.742789"><ele>480.01</ele><time>2026-07-17T19:49:57.000Z</time></trkpt>
        <trkpt lat="29.6755982" lon="104.742788"><ele>479.83</ele><time>2026-07-17T19:50:11.000Z</time></trkpt>
        <trkpt lat="29.6756917" lon="104.7428241"><ele>479</ele><time>2026-07-17T19:50:21.000Z</time></trkpt>
        <trkpt lat="29.6757856" lon="104.7428519"><ele>477.62</ele><time>2026-07-17T19:50:33.000Z</time></trkpt>
        <trkpt lat="29.6758857" lon="104.7428379"><ele>476.45</ele><time>2026-07-17T19:50:45.000Z</time></trkpt>
        <trkpt lat="29.6759817" lon="104.7428155"><ele>475.74</ele><time>2026-07-17T19:50:53.000Z</time></trkpt>
        <trkpt lat="29.6760757" lon="104.7427905"><ele>475.42</ele><time>2026-07-17T19:51:03.000Z</time></trkpt>
        <trkpt lat="29.6761101" lon="104.7427686"><ele>475.8</ele><time>2026-07-17T19:51:05.000Z</time></trkpt>
        <trkpt lat="29.6761792" lon="104.7427412"><ele>476.1</ele><time>2026-07-17T19:51:17.000Z</time></trkpt>
        <trkpt lat="29.6761792" lon="104.7427412"><ele>476.1</ele><time>2026-07-17T19:51:42.000Z</time></trkpt>
        <trkpt lat="29.6762367" lon="104.7426533"><ele>477.09</ele><time>2026-07-17T19:53:29.000Z</time></trkpt>
        <trkpt lat="29.6762367" lon="104.7426533"><ele>477.09</ele><time>2026-07-17T19:53:35.000Z</time></trkpt>
        <trkpt lat="29.676315" lon="104.7425967"><ele>480.92</ele><time>2026-07-17T19:53:45.000Z</time></trkpt>
        <trkpt lat="29.6763313" lon="104.7424921"><ele>482.76</ele><time>2026-07-17T19:53:57.000Z</time></trkpt>
        <trkpt lat="29.676352" lon="104.7423854"><ele>482.91</ele><time>2026-07-17T19:54:09.000Z</time></trkpt>
        <trkpt lat="29.6763939" lon="104.7422866"><ele>483.21</ele><time>2026-07-17T19:54:21.000Z</time></trkpt>
        <trkpt lat="29.6764128" lon="104.7421839"><ele>484.02</ele><time>2026-07-17T19:54:33.000Z</time></trkpt>
        <trkpt lat="29.6764454" lon="104.7420811"><ele>484.96</ele><time>2026-07-17T19:54:45.000Z</time></trkpt>
        <trkpt lat="29.6765078" lon="104.7419863"><ele>485.45</ele><time>2026-07-17T19:54:57.000Z</time></trkpt>
        <trkpt lat="29.6765771" lon="104.7418921"><ele>486.68</ele><time>2026-07-17T19:55:09.000Z</time></trkpt>
        <trkpt lat="29.676671" lon="104.7418378"><ele>488.71</ele><time>2026-07-17T19:55:21.000Z</time></trkpt>
        <trkpt lat="29.6767713" lon="104.7418267"><ele>490.68</ele><time>2026-07-17T19:55:31.000Z</time></trkpt>
        <trkpt lat="29.6768782" lon="104.7418153"><ele>492.45</ele><time>2026-07-17T19:55:43.000Z</time></trkpt>
        <trkpt lat="29.6769711" lon="104.7417889"><ele>494.02</ele><time>2026-07-17T19:55:51.000Z</time></trkpt>
        <trkpt lat="29.6770664" lon="104.741804"><ele>494.96</ele><time>2026-07-17T19:56:01.000Z</time></trkpt>
        <trkpt lat="29.6771678" lon="104.7418241"><ele>495.28</ele><time>2026-07-17T19:56:13.000Z</time></trkpt>
        <trkpt lat="29.6772777" lon="104.7418449"><ele>495.33</ele><time>2026-07-17T19:56:23.000Z</time></trkpt>
        <trkpt lat="29.6773916" lon="104.7418255"><ele>495.75</ele><time>2026-07-17T19:56:33.000Z</time></trkpt>
        <trkpt lat="29.6774775" lon="104.7417632"><ele>496.5</ele><time>2026-07-17T19:56:43.000Z</time></trkpt>
        <trkpt lat="29.6775638" lon="104.7417044"><ele>497.4</ele><time>2026-07-17T19:56:53.000Z</time></trkpt>
        <trkpt lat="29.6776478" lon="104.7416564"><ele>498.86</ele><time>2026-07-17T19:57:03.000Z</time></trkpt>
        <trkpt lat="29.6777441" lon="104.7416302"><ele>500.56</ele><time>2026-07-17T19:57:13.000Z</time></trkpt>
        <trkpt lat="29.6778466" lon="104.7416397"><ele>502</ele><time>2026-07-17T19:57:23.000Z</time></trkpt>
        <trkpt lat="29.6779271" lon="104.7416988"><ele>503.29</ele><time>2026-07-17T19:57:31.000Z</time></trkpt>
        <trkpt lat="29.6779828" lon="104.7417973"><ele>504.84</ele><time>2026-07-17T19:57:41.000Z</time></trkpt>
        <trkpt lat="29.6780666" lon="104.7418648"><ele>506.42</ele><time>2026-07-17T19:57:53.000Z</time></trkpt>
        <trkpt lat="29.6781588" lon="104.7418891"><ele>507.44</ele><time>2026-07-17T19:58:01.000Z</time></trkpt>
        <trkpt lat="29.6782522" lon="104.7418707"><ele>507.85</ele><time>2026-07-17T19:58:13.000Z</time></trkpt>
        <trkpt lat="29.678349" lon="104.74184"><ele>507.19</ele><time>2026-07-17T19:58:25.000Z</time></trkpt>
        <trkpt lat="29.678349" lon="104.74184"><ele>507.19</ele><time>2026-07-17T19:59:11.000Z</time></trkpt>
        <trkpt lat="29.6785079" lon="104.7417206"><ele>506.63</ele><time>2026-07-17T19:59:15.000Z</time></trkpt>
        <trkpt lat="29.6785079" lon="104.7417206"><ele>506.63</ele><time>2026-07-17T19:59:31.000Z</time></trkpt>
        <trkpt lat="29.6784829" lon="104.741646"><ele>507.05</ele><time>2026-07-17T19:59:47.000Z</time></trkpt>
        <trkpt lat="29.6784589" lon="104.7415384"><ele>507.54</ele><time>2026-07-17T20:00:21.000Z</time></trkpt>
        <trkpt lat="29.6785051" lon="104.7414531"><ele>509.12</ele><time>2026-07-17T20:00:33.000Z</time></trkpt>
        <trkpt lat="29.6785764" lon="104.7413738"><ele>510.74</ele><time>2026-07-17T20:00:43.000Z</time></trkpt>
        <trkpt lat="29.6786358" lon="104.7412781"><ele>512.27</ele><time>2026-07-17T20:00:53.000Z</time></trkpt>
        <trkpt lat="29.6787009" lon="104.7411938"><ele>513.62</ele><time>2026-07-17T20:01:05.000Z</time></trkpt>
        <trkpt lat="29.6787436" lon="104.7410931"><ele>515.33</ele><time>2026-07-17T20:01:21.000Z</time></trkpt>
        <trkpt lat="29.6788012" lon="104.741005"><ele>516.18</ele><time>2026-07-17T20:01:33.000Z</time></trkpt>
        <trkpt lat="29.6788876" lon="104.7409361"><ele>516.06</ele><time>2026-07-17T20:01:45.000Z</time></trkpt>
        <trkpt lat="29.6789718" lon="104.7408752"><ele>515.35</ele><time>2026-07-17T20:01:55.000Z</time></trkpt>
        <trkpt lat="29.6790658" lon="104.7408686"><ele>514.12</ele><time>2026-07-17T20:02:09.000Z</time></trkpt>
        <trkpt lat="29.6791551" lon="104.7408332"><ele>513.25</ele><time>2026-07-17T20:02:21.000Z</time></trkpt>
        <trkpt lat="29.679243" lon="104.7408"><ele>512.76</ele><time>2026-07-17T20:02:35.000Z</time></trkpt>
        <trkpt lat="29.6793426" lon="104.7407798"><ele>512.82</ele><time>2026-07-17T20:02:49.000Z</time></trkpt>
        <trkpt lat="29.6794427" lon="104.7407879"><ele>512.85</ele><time>2026-07-17T20:02:59.000Z</time></trkpt>
        <trkpt lat="29.679521" lon="104.7407366"><ele>512.74</ele><time>2026-07-17T20:03:11.000Z</time></trkpt>
        <trkpt lat="29.6795684" lon="104.740639"><ele>512.55</ele><time>2026-07-17T20:03:23.000Z</time></trkpt>
        <trkpt lat="29.6796043" lon="104.7405355"><ele>512.96</ele><time>2026-07-17T20:03:35.000Z</time></trkpt>
        <trkpt lat="29.6796218" lon="104.7404272"><ele>513.67</ele><time>2026-07-17T20:03:49.000Z</time></trkpt>
        <trkpt lat="29.6795983" lon="104.7403195"><ele>514.76</ele><time>2026-07-17T20:04:03.000Z</time></trkpt>
        <trkpt lat="29.6795666" lon="104.7402023"><ele>515.89</ele><time>2026-07-17T20:04:17.000Z</time></trkpt>
        <trkpt lat="29.6795515" lon="104.7400935"><ele>516.63</ele><time>2026-07-17T20:04:27.000Z</time></trkpt>
        <trkpt lat="29.6795723" lon="104.73999"><ele>516.57</ele><time>2026-07-17T20:04:39.000Z</time></trkpt>
        <trkpt lat="29.6796114" lon="104.7398822"><ele>516.37</ele><time>2026-07-17T20:04:55.000Z</time></trkpt>
        <trkpt lat="29.6796191" lon="104.7397676"><ele>516.38</ele><time>2026-07-17T20:05:09.000Z</time></trkpt>
        <trkpt lat="29.6795907" lon="104.7396668"><ele>516.43</ele><time>2026-07-17T20:05:41.000Z</time></trkpt>
        <trkpt lat="29.6795988" lon="104.739723"><ele>517.62</ele><time>2026-07-17T20:06:03.000Z</time></trkpt>
        <trkpt lat="29.6796262" lon="104.7396732"><ele>518.77</ele><time>2026-07-17T20:06:27.000Z</time></trkpt>
        <trkpt lat="29.6796373" lon="104.7395709"><ele>519.26</ele><time>2026-07-17T20:06:41.000Z</time></trkpt>
        <trkpt lat="29.6797012" lon="104.7394943"><ele>518.33</ele><time>2026-07-17T20:06:51.000Z</time></trkpt>
        <trkpt lat="29.679797" lon="104.7394342"><ele>518.45</ele><time>2026-07-17T20:07:07.000Z</time></trkpt>
        <trkpt lat="29.6798829" lon="104.7393644"><ele>518.81</ele><time>2026-07-17T20:07:19.000Z</time></trkpt>
        <trkpt lat="29.6799393" lon="104.7392665"><ele>519.58</ele><time>2026-07-17T20:07:33.000Z</time></trkpt>
        <trkpt lat="29.6798836" lon="104.7392487"><ele>521.1</ele><time>2026-07-17T20:08:21.000Z</time></trkpt>
        <trkpt lat="29.6797792" lon="104.7392293"><ele>523.33</ele><time>2026-07-17T20:08:35.000Z</time></trkpt>
        <trkpt lat="29.6797725" lon="104.7391568"><ele>526.33</ele><time>2026-07-17T20:09:21.000Z</time></trkpt>
        <trkpt lat="29.6797202" lon="104.7390871"><ele>531.09</ele><time>2026-07-17T20:09:41.000Z</time></trkpt>
        <trkpt lat="29.6797202" lon="104.7390871"><ele>531.09</ele><time>2026-07-17T20:10:12.000Z</time></trkpt>
        <trkpt lat="29.6796506" lon="104.7389447"><ele>535.48</ele><time>2026-07-17T20:10:48.000Z</time></trkpt>
        <trkpt lat="29.6796506" lon="104.7389447"><ele>535.48</ele><time>2026-07-17T20:10:53.000Z</time></trkpt>
        <trkpt lat="29.6796506" lon="104.7389447"><ele>535.48</ele><time>2026-07-17T20:11:23.000Z</time></trkpt>
        <trkpt lat="29.6795683" lon="104.7388733"><ele>539.53</ele><time>2026-07-17T20:11:31.000Z</time></trkpt>
        <trkpt lat="29.6795683" lon="104.7388733"><ele>539.53</ele><time>2026-07-17T20:12:17.000Z</time></trkpt>
        <trkpt lat="29.6794883" lon="104.738815"><ele>543.56</ele><time>2026-07-17T20:12:29.000Z</time></trkpt>
        <trkpt lat="29.67939" lon="104.7388032"><ele>547.67</ele><time>2026-07-17T20:12:41.000Z</time></trkpt>
        <trkpt lat="29.6793502" lon="104.7387225"><ele>552.46</ele><time>2026-07-17T20:12:57.000Z</time></trkpt>
        <trkpt lat="29.6793502" lon="104.7387225"><ele>552.46</ele><time>2026-07-17T20:13:44.000Z</time></trkpt>
        <trkpt lat="29.6794167" lon="104.73862"><ele>556.47</ele><time>2026-07-17T20:19:38.000Z</time></trkpt>
        <trkpt lat="29.6794167" lon="104.73862"><ele>556.47</ele><time>2026-07-17T20:19:53.000Z</time></trkpt>
        <trkpt lat="29.6795083" lon="104.7386217"><ele>555.8</ele><time>2026-07-17T20:20:29.000Z</time></trkpt>
        <trkpt lat="29.6796042" lon="104.7386374"><ele>557.39</ele><time>2026-07-17T20:21:01.000Z</time></trkpt>
        <trkpt lat="29.6796842" lon="104.7385965"><ele>559.89</ele><time>2026-07-17T20:21:25.000Z</time></trkpt>
        <trkpt lat="29.6796842" lon="104.7385965"><ele>559.89</ele><time>2026-07-17T20:22:16.000Z</time></trkpt>
        <trkpt lat="29.679875" lon="104.7384917"><ele>562.47</ele><time>2026-07-17T20:22:46.000Z</time></trkpt>
        <trkpt lat="29.679875" lon="104.7384917"><ele>562.47</ele><time>2026-07-17T20:22:59.000Z</time></trkpt>
        <trkpt lat="29.6799551" lon="104.7384345"><ele>568.03</ele><time>2026-07-17T20:23:15.000Z</time></trkpt>
        <trkpt lat="29.6800451" lon="104.7384016"><ele>571.81</ele><time>2026-07-17T20:24:09.000Z</time></trkpt>
        <trkpt lat="29.6801356" lon="104.7383611"><ele>575.07</ele><time>2026-07-17T20:24:21.000Z</time></trkpt>
        <trkpt lat="29.6802298" lon="104.7383199"><ele>577.06</ele><time>2026-07-17T20:24:41.000Z</time></trkpt>
        <trkpt lat="29.6803228" lon="104.7383185"><ele>579.4</ele><time>2026-07-17T20:24:59.000Z</time></trkpt>
        <trkpt lat="29.6804137" lon="104.738304"><ele>582.46</ele><time>2026-07-17T20:25:15.000Z</time></trkpt>
        <trkpt lat="29.6805076" lon="104.7383276"><ele>585.23</ele><time>2026-07-17T20:25:29.000Z</time></trkpt>
        <trkpt lat="29.6805975" lon="104.738356"><ele>587.58</ele><time>2026-07-17T20:25:41.000Z</time></trkpt>
        <trkpt lat="29.6806922" lon="104.7383863"><ele>589.1</ele><time>2026-07-17T20:25:55.000Z</time></trkpt>
        <trkpt lat="29.6807938" lon="104.738412"><ele>590</ele><time>2026-07-17T20:26:09.000Z</time></trkpt>
        <trkpt lat="29.6808902" lon="104.7384176"><ele>590.99</ele><time>2026-07-17T20:26:23.000Z</time></trkpt>
        <trkpt lat="29.6809905" lon="104.7384332"><ele>592.16</ele><time>2026-07-17T20:26:55.000Z</time></trkpt>
        <trkpt lat="29.6810935" lon="104.7384146"><ele>593.38</ele><time>2026-07-17T20:27:07.000Z</time></trkpt>
        <trkpt lat="29.681191" lon="104.7384085"><ele>593.86</ele><time>2026-07-17T20:27:21.000Z</time></trkpt>
        <trkpt lat="29.6812975" lon="104.7384051"><ele>594.18</ele><time>2026-07-17T20:27:39.000Z</time></trkpt>
        <trkpt lat="29.6813988" lon="104.7384267"><ele>594.75</ele><time>2026-07-17T20:27:57.000Z</time></trkpt>
        <trkpt lat="29.6814964" lon="104.7384576"><ele>595.85</ele><time>2026-07-17T20:28:09.000Z</time></trkpt>
        <trkpt lat="29.6814964" lon="104.7384576"><ele>595.85</ele><time>2026-07-17T20:29:10.000Z</time></trkpt>
        <trkpt lat="29.681585" lon="104.7384883"><ele>596.99</ele><time>2026-07-17T20:30:06.000Z</time></trkpt>
        <trkpt lat="29.681585" lon="104.7384883"><ele>596.99</ele><time>2026-07-17T20:30:07.000Z</time></trkpt>
        <trkpt lat="29.6816567" lon="104.738555"><ele>598.76</ele><time>2026-07-17T20:30:31.000Z</time></trkpt>
        <trkpt lat="29.6817114" lon="104.7386428"><ele>602.13</ele><time>2026-07-17T20:31:07.000Z</time></trkpt>
        <trkpt lat="29.6817114" lon="104.7386428"><ele>602.13</ele><time>2026-07-17T20:32:16.000Z</time></trkpt>
        <trkpt lat="29.6817783" lon="104.7387267"><ele>606.76</ele><time>2026-07-17T20:32:32.000Z</time></trkpt>
        <trkpt lat="29.6817783" lon="104.7387267"><ele>606.76</ele><time>2026-07-17T20:32:53.000Z</time></trkpt>
        <trkpt lat="29.6818683" lon="104.7387583"><ele>613.15</ele><time>2026-07-17T20:33:09.000Z</time></trkpt>
        <trkpt lat="29.6819654" lon="104.7387787"><ele>616.95</ele><time>2026-07-17T20:33:29.000Z</time></trkpt>
        <trkpt lat="29.6820573" lon="104.7387997"><ele>620.59</ele><time>2026-07-17T20:33:47.000Z</time></trkpt>
        <trkpt lat="29.6821551" lon="104.7387932"><ele>623.43</ele><time>2026-07-17T20:34:03.000Z</time></trkpt>
        <trkpt lat="29.6822501" lon="104.7387782"><ele>625.83</ele><time>2026-07-17T20:34:21.000Z</time></trkpt>
        <trkpt lat="29.682345" lon="104.7387515"><ele>628.18</ele><time>2026-07-17T20:34:33.000Z</time></trkpt>
        <trkpt lat="29.6824413" lon="104.7387332"><ele>629.95</ele><time>2026-07-17T20:34:47.000Z</time></trkpt>
        <trkpt lat="29.6825417" lon="104.7387181"><ele>631.13</ele><time>2026-07-17T20:34:59.000Z</time></trkpt>
        <trkpt lat="29.6826361" lon="104.7387094"><ele>631.76</ele><time>2026-07-17T20:35:11.000Z</time></trkpt>
        <trkpt lat="29.6827293" lon="104.7387181"><ele>631.95</ele><time>2026-07-17T20:35:21.000Z</time></trkpt>
        <trkpt lat="29.6828311" lon="104.7387114"><ele>631.63</ele><time>2026-07-17T20:35:35.000Z</time></trkpt>
        <trkpt lat="29.6829323" lon="104.7387042"><ele>631.23</ele><time>2026-07-17T20:35:45.000Z</time></trkpt>
        <trkpt lat="29.6830229" lon="104.7386621"><ele>630.96</ele><time>2026-07-17T20:35:55.000Z</time></trkpt>
        <trkpt lat="29.6831146" lon="104.7386448"><ele>630.42</ele><time>2026-07-17T20:36:07.000Z</time></trkpt>
        <trkpt lat="29.6832095" lon="104.7386813"><ele>629.51</ele><time>2026-07-17T20:36:17.000Z</time></trkpt>
        <trkpt lat="29.6832822" lon="104.7387508"><ele>628.51</ele><time>2026-07-17T20:36:33.000Z</time></trkpt>
        <trkpt lat="29.6832822" lon="104.7387508"><ele>628.51</ele><time>2026-07-17T20:36:38.000Z</time></trkpt>
        <trkpt lat="29.6835062" lon="104.7389717"><ele>627.99</ele><time>2026-07-17T20:37:08.000Z</time></trkpt>
        <trkpt lat="29.6835062" lon="104.7389717"><ele>627.99</ele><time>2026-07-17T20:37:23.000Z</time></trkpt>
        <trkpt lat="29.6835753" lon="104.7390538"><ele>628.55</ele><time>2026-07-17T20:37:33.000Z</time></trkpt>
        <trkpt lat="29.6836644" lon="104.7390364"><ele>629.26</ele><time>2026-07-17T20:37:43.000Z</time></trkpt>
        <trkpt lat="29.6837637" lon="104.7389897"><ele>629.15</ele><time>2026-07-17T20:37:53.000Z</time></trkpt>
        <trkpt lat="29.683872" lon="104.7389425"><ele>629.69</ele><time>2026-07-17T20:38:05.000Z</time></trkpt>
        <trkpt lat="29.683975" lon="104.7388907"><ele>631.07</ele><time>2026-07-17T20:38:15.000Z</time></trkpt>
        <trkpt lat="29.6840313" lon="104.738782"><ele>632.03</ele><time>2026-07-17T20:38:25.000Z</time></trkpt>
        <trkpt lat="29.6840639" lon="104.7386677"><ele>632.66</ele><time>2026-07-17T20:38:35.000Z</time></trkpt>
        <trkpt lat="29.6841079" lon="104.7385566"><ele>632.72</ele><time>2026-07-17T20:38:45.000Z</time></trkpt>
        <trkpt lat="29.6841698" lon="104.7384678"><ele>632.28</ele><time>2026-07-17T20:38:55.000Z</time></trkpt>
        <trkpt lat="29.684234" lon="104.7383769"><ele>632.5</ele><time>2026-07-17T20:39:07.000Z</time></trkpt>
        <trkpt lat="29.6842384" lon="104.7382734"><ele>632.89</ele><time>2026-07-17T20:39:27.000Z</time></trkpt>
        <trkpt lat="29.6841716" lon="104.7382127"><ele>633.07</ele><time>2026-07-17T20:39:39.000Z</time></trkpt>
        <trkpt lat="29.6841716" lon="104.7382127"><ele>633.07</ele><time>2026-07-17T20:40:17.000Z</time></trkpt>
        <trkpt lat="29.6840657" lon="104.7381593"><ele>632.74</ele><time>2026-07-17T20:40:27.000Z</time></trkpt>
        <trkpt lat="29.6840657" lon="104.7381593"><ele>632.74</ele><time>2026-07-17T20:40:37.000Z</time></trkpt>
        <trkpt lat="29.6840297" lon="104.7380603"><ele>633.45</ele><time>2026-07-17T20:41:01.000Z</time></trkpt>
        <trkpt lat="29.6840308" lon="104.7379457"><ele>632.83</ele><time>2026-07-17T20:41:09.000Z</time></trkpt>
        <trkpt lat="29.6839803" lon="104.737857"><ele>631.87</ele><time>2026-07-17T20:41:27.000Z</time></trkpt>
        <trkpt lat="29.6839384" lon="104.7377509"><ele>631.8</ele><time>2026-07-17T20:41:39.000Z</time></trkpt>
        <trkpt lat="29.6839023" lon="104.7376328"><ele>631.75</ele><time>2026-07-17T20:41:49.000Z</time></trkpt>
        <trkpt lat="29.6838624" lon="104.7375199"><ele>631.04</ele><time>2026-07-17T20:41:57.000Z</time></trkpt>
        <trkpt lat="29.6838259" lon="104.7374174"><ele>629.95</ele><time>2026-07-17T20:42:07.000Z</time></trkpt>
        <trkpt lat="29.6838046" lon="104.7373164"><ele>628.94</ele><time>2026-07-17T20:42:15.000Z</time></trkpt>
        <trkpt lat="29.6837736" lon="104.7372144"><ele>628.32</ele><time>2026-07-17T20:42:27.000Z</time></trkpt>
        <trkpt lat="29.6837759" lon="104.7371028"><ele>627.88</ele><time>2026-07-17T20:42:45.000Z</time></trkpt>
        <trkpt lat="29.683784" lon="104.7369852"><ele>627.55</ele><time>2026-07-17T20:42:55.000Z</time></trkpt>
        <trkpt lat="29.6837762" lon="104.736867"><ele>627.31</ele><time>2026-07-17T20:43:09.000Z</time></trkpt>
        <trkpt lat="29.6837513" lon="104.736753"><ele>626.92</ele><time>2026-07-17T20:43:25.000Z</time></trkpt>
        <trkpt lat="29.6836915" lon="104.7366672"><ele>627.17</ele><time>2026-07-17T20:43:35.000Z</time></trkpt>
        <trkpt lat="29.6836339" lon="104.7365778"><ele>627.57</ele><time>2026-07-17T20:43:45.000Z</time></trkpt>
        <trkpt lat="29.683597" lon="104.7364781"><ele>628.14</ele><time>2026-07-17T20:44:01.000Z</time></trkpt>
        <trkpt lat="29.6835513" lon="104.7363839"><ele>628.25</ele><time>2026-07-17T20:44:17.000Z</time></trkpt>
        <trkpt lat="29.6834719" lon="104.7363333"><ele>628.92</ele><time>2026-07-17T20:44:25.000Z</time></trkpt>
        <trkpt lat="29.6833828" lon="104.7363536"><ele>628.39</ele><time>2026-07-17T20:44:39.000Z</time></trkpt>
        <trkpt lat="29.6833828" lon="104.7363536"><ele>628.39</ele><time>2026-07-17T20:44:40.000Z</time></trkpt>
        <trkpt lat="29.6832947" lon="104.7363371"><ele>628.05</ele><time>2026-07-17T20:44:50.000Z</time></trkpt>
        <trkpt lat="29.6832947" lon="104.7363371"><ele>628.05</ele><time>2026-07-17T20:44:51.000Z</time></trkpt>
        <trkpt lat="29.683206" lon="104.7362946"><ele>627.69</ele><time>2026-07-17T20:45:01.000Z</time></trkpt>
        <trkpt lat="29.6831091" lon="104.7362517"><ele>627.95</ele><time>2026-07-17T20:45:15.000Z</time></trkpt>
        <trkpt lat="29.6831091" lon="104.7362517"><ele>627.95</ele><time>2026-07-17T20:45:26.000Z</time></trkpt>
        <trkpt lat="29.68268" lon="104.7361796"><ele>628.57</ele><time>2026-07-17T20:46:07.000Z</time></trkpt>
        <trkpt lat="29.68268" lon="104.7361796"><ele>628.57</ele><time>2026-07-17T20:46:15.000Z</time></trkpt>
        <trkpt lat="29.6826377" lon="104.7361174"><ele>632.5</ele><time>2026-07-17T20:46:23.000Z</time></trkpt>
        <trkpt lat="29.6825771" lon="104.7360402"><ele>634.74</ele><time>2026-07-17T20:46:33.000Z</time></trkpt>
        <trkpt lat="29.6824968" lon="104.7359787"><ele>636.96</ele><time>2026-07-17T20:46:43.000Z</time></trkpt>
        <trkpt lat="29.6824381" lon="104.7358807"><ele>638.57</ele><time>2026-07-17T20:46:59.000Z</time></trkpt>
        <trkpt lat="29.6823659" lon="104.7357963"><ele>639.91</ele><time>2026-07-17T20:47:07.000Z</time></trkpt>
        <trkpt lat="29.6822694" lon="104.7357342"><ele>640.6</ele><time>2026-07-17T20:47:17.000Z</time></trkpt>
        <trkpt lat="29.6822694" lon="104.7357342"><ele>640.6</ele><time>2026-07-17T20:47:55.000Z</time></trkpt>
        <trkpt lat="29.682172" lon="104.7357383"><ele>641.03</ele><time>2026-07-17T20:47:56.000Z</time></trkpt>
        <trkpt lat="29.682172" lon="104.7357383"><ele>641.03</ele><time>2026-07-17T20:48:01.000Z</time></trkpt>
        <trkpt lat="29.6820783" lon="104.7357106"><ele>640.37</ele><time>2026-07-17T20:48:09.000Z</time></trkpt>
        <trkpt lat="29.6820419" lon="104.7356909"><ele>640.34</ele><time>2026-07-17T20:48:11.000Z</time></trkpt>
        <trkpt lat="29.6819766" lon="104.7356273"><ele>640.32</ele><time>2026-07-17T20:48:19.000Z</time></trkpt>
        <trkpt lat="29.6818815" lon="104.7355583"><ele>639.71</ele><time>2026-07-17T20:48:29.000Z</time></trkpt>
        <trkpt lat="29.6817893" lon="104.7355044"><ele>639.06</ele><time>2026-07-17T20:48:37.000Z</time></trkpt>
        <trkpt lat="29.6817097" lon="104.7354299"><ele>638.6</ele><time>2026-07-17T20:48:47.000Z</time></trkpt>
        <trkpt lat="29.6816243" lon="104.7353552"><ele>638.04</ele><time>2026-07-17T20:48:57.000Z</time></trkpt>
        <trkpt lat="29.6815326" lon="104.7353166"><ele>637.21</ele><time>2026-07-17T20:49:05.000Z</time></trkpt>
        <trkpt lat="29.681425" lon="104.7352855"><ele>636.04</ele><time>2026-07-17T20:49:15.000Z</time></trkpt>
        <trkpt lat="29.6813145" lon="104.735283"><ele>633.92</ele><time>2026-07-17T20:49:25.000Z</time></trkpt>
        <trkpt lat="29.6812078" lon="104.7352785"><ele>632.15</ele><time>2026-07-17T20:49:35.000Z</time></trkpt>
        <trkpt lat="29.6811095" lon="104.7352796"><ele>631.18</ele><time>2026-07-17T20:49:47.000Z</time></trkpt>
        <trkpt lat="29.6810119" lon="104.7352367"><ele>629.51</ele><time>2026-07-17T20:50:05.000Z</time></trkpt>
        <trkpt lat="29.6809243" lon="104.7351844"><ele>628.26</ele><time>2026-07-17T20:50:13.000Z</time></trkpt>
        <trkpt lat="29.6808388" lon="104.7351367"><ele>627.29</ele><time>2026-07-17T20:50:29.000Z</time></trkpt>
        <trkpt lat="29.6807497" lon="104.7350949"><ele>625.96</ele><time>2026-07-17T20:50:41.000Z</time></trkpt>
        <trkpt lat="29.6806638" lon="104.7350445"><ele>625.25</ele><time>2026-07-17T20:50:55.000Z</time></trkpt>
        <trkpt lat="29.6805727" lon="104.7349921"><ele>624.75</ele><time>2026-07-17T20:51:09.000Z</time></trkpt>
        <trkpt lat="29.6805727" lon="104.7349921"><ele>624.75</ele><time>2026-07-17T20:51:49.000Z</time></trkpt>
        <trkpt lat="29.680655" lon="104.7350483"><ele>624.69</ele><time>2026-07-17T20:52:12.000Z</time></trkpt>
        <trkpt lat="29.680655" lon="104.7350483"><ele>624.69</ele><time>2026-07-17T20:52:19.000Z</time></trkpt>
        <trkpt lat="29.6807533" lon="104.7350967"><ele>624.86</ele><time>2026-07-17T20:52:29.000Z</time></trkpt>
        <trkpt lat="29.6808404" lon="104.7351337"><ele>624.75</ele><time>2026-07-17T20:52:39.000Z</time></trkpt>
        <trkpt lat="29.6809293" lon="104.7351675"><ele>624.3</ele><time>2026-07-17T20:52:49.000Z</time></trkpt>
        <trkpt lat="29.6810212" lon="104.7352152"><ele>624.21</ele><time>2026-07-17T20:52:59.000Z</time></trkpt>
        <trkpt lat="29.6809618" lon="104.7352382"><ele>624.08</ele><time>2026-07-17T20:53:31.000Z</time></trkpt>
        <trkpt lat="29.6808542" lon="104.7352203"><ele>624.39</ele><time>2026-07-17T20:53:41.000Z</time></trkpt>
        <trkpt lat="29.6807436" lon="104.7352174"><ele>623.53</ele><time>2026-07-17T20:53:53.000Z</time></trkpt>
        <trkpt lat="29.6806426" lon="104.7351839"><ele>622.06</ele><time>2026-07-17T20:54:01.000Z</time></trkpt>
        <trkpt lat="29.6805366" lon="104.7351675"><ele>620.27</ele><time>2026-07-17T20:54:13.000Z</time></trkpt>
        <trkpt lat="29.6804416" lon="104.7351995"><ele>618.17</ele><time>2026-07-17T20:54:27.000Z</time></trkpt>
        <trkpt lat="29.6803466" lon="104.7352141"><ele>615.95</ele><time>2026-07-17T20:54:39.000Z</time></trkpt>
        <trkpt lat="29.6802679" lon="104.7351686"><ele>613.43</ele><time>2026-07-17T20:54:47.000Z</time></trkpt>
        <trkpt lat="29.6801726" lon="104.7351257"><ele>611.4</ele><time>2026-07-17T20:54:57.000Z</time></trkpt>
        <trkpt lat="29.6800804" lon="104.735073"><ele>609.76</ele><time>2026-07-17T20:55:13.000Z</time></trkpt>
        <trkpt lat="29.6800185" lon="104.7349932"><ele>608.75</ele><time>2026-07-17T20:55:23.000Z</time></trkpt>
        <trkpt lat="29.6800185" lon="104.7349932"><ele>608.75</ele><time>2026-07-17T20:56:13.000Z</time></trkpt>
        <trkpt lat="29.679955" lon="104.734905"><ele>608.51</ele><time>2026-07-17T20:56:54.000Z</time></trkpt>
        <trkpt lat="29.679955" lon="104.734905"><ele>608.51</ele><time>2026-07-17T20:56:55.000Z</time></trkpt>
        <trkpt lat="29.6798717" lon="104.7348317"><ele>609.07</ele><time>2026-07-17T20:57:05.000Z</time></trkpt>
        <trkpt lat="29.6797954" lon="104.7347442"><ele>608.82</ele><time>2026-07-17T20:57:13.000Z</time></trkpt>
        <trkpt lat="29.6797654" lon="104.7347148"><ele>608.04</ele><time>2026-07-17T20:57:15.000Z</time></trkpt>
        <trkpt lat="29.6797336" lon="104.7346369"><ele>607.38</ele><time>2026-07-17T20:57:23.000Z</time></trkpt>
        <trkpt lat="29.6796821" lon="104.7345238"><ele>605.92</ele><time>2026-07-17T20:57:31.000Z</time></trkpt>
        <trkpt lat="29.679611" lon="104.7344301"><ele>604.58</ele><time>2026-07-17T20:57:39.000Z</time></trkpt>
        <trkpt lat="29.6795555" lon="104.7343285"><ele>603.3</ele><time>2026-07-17T20:57:47.000Z</time></trkpt>
        <trkpt lat="29.6794808" lon="104.7342507"><ele>601.66</ele><time>2026-07-17T20:57:55.000Z</time></trkpt>
        <trkpt lat="29.6793925" lon="104.7341946"><ele>600.73</ele><time>2026-07-17T20:58:07.000Z</time></trkpt>
        <trkpt lat="29.6793091" lon="104.7341443"><ele>599.9</ele><time>2026-07-17T20:58:15.000Z</time></trkpt>
        <trkpt lat="29.6792186" lon="104.7340918"><ele>600.2</ele><time>2026-07-17T20:58:25.000Z</time></trkpt>
        <trkpt lat="29.6792074" lon="104.73416"><ele>601.19</ele><time>2026-07-17T20:58:45.000Z</time></trkpt>
        <trkpt lat="29.6791405" lon="104.7341629"><ele>603.39</ele><time>2026-07-17T20:59:15.000Z</time></trkpt>
        <trkpt lat="29.6790531" lon="104.7341462"><ele>606.23</ele><time>2026-07-17T20:59:27.000Z</time></trkpt>
        <trkpt lat="29.6789678" lon="104.7341023"><ele>608.24</ele><time>2026-07-17T20:59:39.000Z</time></trkpt>
        <trkpt lat="29.6788799" lon="104.7340645"><ele>609.6</ele><time>2026-07-17T20:59:51.000Z</time></trkpt>
        <trkpt lat="29.6787855" lon="104.734031"><ele>611.11</ele><time>2026-07-17T21:00:05.000Z</time></trkpt>
        <trkpt lat="29.6787219" lon="104.7339534"><ele>612.82</ele><time>2026-07-17T21:00:17.000Z</time></trkpt>
        <trkpt lat="29.6787102" lon="104.7338499"><ele>614.15</ele><time>2026-07-17T21:00:33.000Z</time></trkpt>
        <trkpt lat="29.6787098" lon="104.7337394"><ele>614.34</ele><time>2026-07-17T21:01:19.000Z</time></trkpt>
        <trkpt lat="29.6787051" lon="104.7336267"><ele>613.59</ele><time>2026-07-17T21:01:27.000Z</time></trkpt>
        <trkpt lat="29.6786874" lon="104.7335036"><ele>612.95</ele><time>2026-07-17T21:01:35.000Z</time></trkpt>
        <trkpt lat="29.678679" lon="104.7333842"><ele>612.54</ele><time>2026-07-17T21:01:43.000Z</time></trkpt>
        <trkpt lat="29.6786804" lon="104.7332722"><ele>612.52</ele><time>2026-07-17T21:01:57.000Z</time></trkpt>
        <trkpt lat="29.6786498" lon="104.7331671"><ele>612.3</ele><time>2026-07-17T21:02:23.000Z</time></trkpt>
        <trkpt lat="29.6786719" lon="104.7330669"><ele>611.22</ele><time>2026-07-17T21:02:37.000Z</time></trkpt>
        <trkpt lat="29.6786645" lon="104.7329629"><ele>609.97</ele><time>2026-07-17T21:02:57.000Z</time></trkpt>
        <trkpt lat="29.6786541" lon="104.732852"><ele>607.83</ele><time>2026-07-17T21:03:09.000Z</time></trkpt>
        <trkpt lat="29.6786444" lon="104.7327374"><ele>604.98</ele><time>2026-07-17T21:03:19.000Z</time></trkpt>
        <trkpt lat="29.6786279" lon="104.7326178"><ele>602.79</ele><time>2026-07-17T21:03:31.000Z</time></trkpt>
        <trkpt lat="29.6786165" lon="104.7325057"><ele>601.42</ele><time>2026-07-17T21:03:43.000Z</time></trkpt>
        <trkpt lat="29.678625" lon="104.7324005"><ele>599.99</ele><time>2026-07-17T21:03:55.000Z</time></trkpt>
        <trkpt lat="29.6786432" lon="104.7322977"><ele>599.26</ele><time>2026-07-17T21:04:11.000Z</time></trkpt>
        <trkpt lat="29.6786351" lon="104.7321928"><ele>599.49</ele><time>2026-07-17T21:04:23.000Z</time></trkpt>
        <trkpt lat="29.6786088" lon="104.732088"><ele>600.49</ele><time>2026-07-17T21:04:37.000Z</time></trkpt>
        <trkpt lat="29.6785415" lon="104.7320195"><ele>601.61</ele><time>2026-07-17T21:05:01.000Z</time></trkpt>
        <trkpt lat="29.6784871" lon="104.7319329"><ele>601.91</ele><time>2026-07-17T21:05:19.000Z</time></trkpt>
        <trkpt lat="29.6784871" lon="104.7319329"><ele>601.91</ele><time>2026-07-17T21:06:10.000Z</time></trkpt>
        <trkpt lat="29.6783433" lon="104.7317617"><ele>601</ele><time>2026-07-17T21:06:54.000Z</time></trkpt>
        <trkpt lat="29.6783433" lon="104.7317617"><ele>601</ele><time>2026-07-17T21:07:09.000Z</time></trkpt>
        <trkpt lat="29.6782915" lon="104.7316585"><ele>598.63</ele><time>2026-07-17T21:07:21.000Z</time></trkpt>
        <trkpt lat="29.6782312" lon="104.7315625"><ele>597.33</ele><time>2026-07-17T21:07:39.000Z</time></trkpt>
        <trkpt lat="29.6781946" lon="104.7314525"><ele>595.9</ele><time>2026-07-17T21:07:51.000Z</time></trkpt>
        <trkpt lat="29.6781366" lon="104.7313611"><ele>594.26</ele><time>2026-07-17T21:08:07.000Z</time></trkpt>
        <trkpt lat="29.6780897" lon="104.7312508"><ele>591.14</ele><time>2026-07-17T21:08:25.000Z</time></trkpt>
        <trkpt lat="29.6780387" lon="104.7311543"><ele>587.04</ele><time>2026-07-17T21:08:43.000Z</time></trkpt>
        <trkpt lat="29.6779946" lon="104.7310573"><ele>583.11</ele><time>2026-07-17T21:09:31.000Z</time></trkpt>
        <trkpt lat="29.6779155" lon="104.7310147"><ele>578.29</ele><time>2026-07-17T21:09:43.000Z</time></trkpt>
        <trkpt lat="29.6779155" lon="104.7310147"><ele>578.29</ele><time>2026-07-17T21:10:29.000Z</time></trkpt>
        <trkpt lat="29.6778667" lon="104.7309217"><ele>574.59</ele><time>2026-07-17T21:10:49.000Z</time></trkpt>
        <trkpt lat="29.6778667" lon="104.7309217"><ele>574.59</ele><time>2026-07-17T21:10:49.000Z</time></trkpt>
        <trkpt lat="29.677855" lon="104.7308133"><ele>570.64</ele><time>2026-07-17T21:11:01.000Z</time></trkpt>
        <trkpt lat="29.6778828" lon="104.7307106"><ele>568.47</ele><time>2026-07-17T21:11:13.000Z</time></trkpt>
        <trkpt lat="29.6779266" lon="104.7306128"><ele>567.06</ele><time>2026-07-17T21:11:25.000Z</time></trkpt>
        <trkpt lat="29.6779694" lon="104.7305178"><ele>566.52</ele><time>2026-07-17T21:11:33.000Z</time></trkpt>
        <trkpt lat="29.678002" lon="104.7304098"><ele>566.55</ele><time>2026-07-17T21:11:45.000Z</time></trkpt>
        <trkpt lat="29.6780213" lon="104.7302942"><ele>567.26</ele><time>2026-07-17T21:11:59.000Z</time></trkpt>
        <trkpt lat="29.6780645" lon="104.7301788"><ele>569</ele><time>2026-07-17T21:12:11.000Z</time></trkpt>
        <trkpt lat="29.6780747" lon="104.730063"><ele>572.27</ele><time>2026-07-17T21:12:21.000Z</time></trkpt>
        <trkpt lat="29.6780168" lon="104.7299698"><ele>575.59</ele><time>2026-07-17T21:12:29.000Z</time></trkpt>
        <trkpt lat="29.6779341" lon="104.7299103"><ele>577.45</ele><time>2026-07-17T21:12:37.000Z</time></trkpt>
        <trkpt lat="29.677853" lon="104.729833"><ele>578.16</ele><time>2026-07-17T21:12:47.000Z</time></trkpt>
        <trkpt lat="29.6778113" lon="104.7297244"><ele>577.92</ele><time>2026-07-17T21:12:59.000Z</time></trkpt>
        <trkpt lat="29.677816" lon="104.7296026"><ele>577.31</ele><time>2026-07-17T21:13:09.000Z</time></trkpt>
        <trkpt lat="29.6778526" lon="104.7294939"><ele>576.49</ele><time>2026-07-17T21:13:21.000Z</time></trkpt>
        <trkpt lat="29.6779141" lon="104.7293966"><ele>575.2</ele><time>2026-07-17T21:13:33.000Z</time></trkpt>
        <trkpt lat="29.6779738" lon="104.7292984"><ele>574.3</ele><time>2026-07-17T21:13:43.000Z</time></trkpt>
        <trkpt lat="29.6780295" lon="104.7292045"><ele>573.05</ele><time>2026-07-17T21:13:53.000Z</time></trkpt>
        <trkpt lat="29.6780385" lon="104.7290917"><ele>571.48</ele><time>2026-07-17T21:14:03.000Z</time></trkpt>
        <trkpt lat="29.6780334" lon="104.728978"><ele>570.54</ele><time>2026-07-17T21:14:13.000Z</time></trkpt>
        <trkpt lat="29.6780356" lon="104.7288685"><ele>569.88</ele><time>2026-07-17T21:14:25.000Z</time></trkpt>
        <trkpt lat="29.6780234" lon="104.7287523"><ele>569.41</ele><time>2026-07-17T21:14:39.000Z</time></trkpt>
        <trkpt lat="29.6780331" lon="104.7286362"><ele>570.1</ele><time>2026-07-17T21:14:53.000Z</time></trkpt>
        <trkpt lat="29.6780305" lon="104.7285193"><ele>570.96</ele><time>2026-07-17T21:15:05.000Z</time></trkpt>
        <trkpt lat="29.6780103" lon="104.7284072"><ele>571.92</ele><time>2026-07-17T21:15:19.000Z</time></trkpt>
        <trkpt lat="29.6779652" lon="104.7283146"><ele>572.86</ele><time>2026-07-17T21:15:29.000Z</time></trkpt>
        <trkpt lat="29.6779148" lon="104.7282265"><ele>573.91</ele><time>2026-07-17T21:15:41.000Z</time></trkpt>
        <trkpt lat="29.6778368" lon="104.72815"><ele>575.11</ele><time>2026-07-17T21:15:53.000Z</time></trkpt>
        <trkpt lat="29.6777475" lon="104.7280883"><ele>576.35</ele><time>2026-07-17T21:16:03.000Z</time></trkpt>
        <trkpt lat="29.6776576" lon="104.7280333"><ele>577.49</ele><time>2026-07-17T21:16:15.000Z</time></trkpt>
        <trkpt lat="29.6775618" lon="104.7280007"><ele>580.08</ele><time>2026-07-17T21:16:27.000Z</time></trkpt>
        <trkpt lat="29.6774823" lon="104.7279376"><ele>582.54</ele><time>2026-07-17T21:16:41.000Z</time></trkpt>
        <trkpt lat="29.6774284" lon="104.7278515"><ele>584.63</ele><time>2026-07-17T21:16:51.000Z</time></trkpt>
        <trkpt lat="29.6773722" lon="104.727749"><ele>587.24</ele><time>2026-07-17T21:17:03.000Z</time></trkpt>
        <trkpt lat="29.6772972" lon="104.7276897"><ele>589.68</ele><time>2026-07-17T21:17:11.000Z</time></trkpt>
        <trkpt lat="29.6772058" lon="104.7276717"><ele>591.45</ele><time>2026-07-17T21:17:19.000Z</time></trkpt>
        <trkpt lat="29.6770978" lon="104.7276812"><ele>592.42</ele><time>2026-07-17T21:17:29.000Z</time></trkpt>
        <trkpt lat="29.6769862" lon="104.7276902"><ele>592.41</ele><time>2026-07-17T21:17:41.000Z</time></trkpt>
        <trkpt lat="29.6768849" lon="104.7276821"><ele>592.28</ele><time>2026-07-17T21:17:51.000Z</time></trkpt>
        <trkpt lat="29.6768009" lon="104.7276336"><ele>592.29</ele><time>2026-07-17T21:17:59.000Z</time></trkpt>
        <trkpt lat="29.6767319" lon="104.7275529"><ele>591.91</ele><time>2026-07-17T21:18:13.000Z</time></trkpt>
        <trkpt lat="29.6767139" lon="104.7274351"><ele>590.53</ele><time>2026-07-17T21:18:23.000Z</time></trkpt>
        <trkpt lat="29.6767306" lon="104.7273205"><ele>589.65</ele><time>2026-07-17T21:18:31.000Z</time></trkpt>
        <trkpt lat="29.6767303" lon="104.7271981"><ele>589.37</ele><time>2026-07-17T21:18:41.000Z</time></trkpt>
        <trkpt lat="29.6767224" lon="104.7270809"><ele>589.26</ele><time>2026-07-17T21:18:51.000Z</time></trkpt>
        <trkpt lat="29.676702" lon="104.7269632"><ele>589.53</ele><time>2026-07-17T21:19:01.000Z</time></trkpt>
        <trkpt lat="29.676702" lon="104.7269632"><ele>589.53</ele><time>2026-07-17T21:19:04.000Z</time></trkpt>
        <trkpt lat="29.6766624" lon="104.7267345"><ele>589.73</ele><time>2026-07-17T21:19:19.000Z</time></trkpt>
        <trkpt lat="29.6766624" lon="104.7267345"><ele>589.73</ele><time>2026-07-17T21:19:21.000Z</time></trkpt>
        <trkpt lat="29.6766598" lon="104.7266113"><ele>590.19</ele><time>2026-07-17T21:19:31.000Z</time></trkpt>
        <trkpt lat="29.6766522" lon="104.7264982"><ele>589.94</ele><time>2026-07-17T21:19:39.000Z</time></trkpt>
        <trkpt lat="29.676652" lon="104.726383"><ele>589.75</ele><time>2026-07-17T21:19:49.000Z</time></trkpt>
        <trkpt lat="29.6766743" lon="104.7262681"><ele>589.13</ele><time>2026-07-17T21:19:59.000Z</time></trkpt>
        <trkpt lat="29.6766742" lon="104.7261532"><ele>588.08</ele><time>2026-07-17T21:20:09.000Z</time></trkpt>
        <trkpt lat="29.6766884" lon="104.7260308"><ele>586.84</ele><time>2026-07-17T21:20:19.000Z</time></trkpt>
        <trkpt lat="29.6767018" lon="104.7259156"><ele>585.62</ele><time>2026-07-17T21:20:29.000Z</time></trkpt>
        <trkpt lat="29.6767182" lon="104.7257971"><ele>585.14</ele><time>2026-07-17T21:20:39.000Z</time></trkpt>
        <trkpt lat="29.6767342" lon="104.7256874"><ele>585.55</ele><time>2026-07-17T21:20:49.000Z</time></trkpt>
        <trkpt lat="29.6767485" lon="104.7255784"><ele>586.26</ele><time>2026-07-17T21:20:59.000Z</time></trkpt>
        <trkpt lat="29.676772" lon="104.7254654"><ele>587.22</ele><time>2026-07-17T21:21:09.000Z</time></trkpt>
        <trkpt lat="29.6768102" lon="104.7253671"><ele>588.46</ele><time>2026-07-17T21:21:17.000Z</time></trkpt>
        <trkpt lat="29.6768395" lon="104.7252653"><ele>589.25</ele><time>2026-07-17T21:21:27.000Z</time></trkpt>
        <trkpt lat="29.6768896" lon="104.7251666"><ele>590.69</ele><time>2026-07-17T21:21:49.000Z</time></trkpt>
        <trkpt lat="29.6769308" lon="104.7250575"><ele>592.55</ele><time>2026-07-17T21:22:03.000Z</time></trkpt>
        <trkpt lat="29.6769589" lon="104.7249431"><ele>593</ele><time>2026-07-17T21:22:23.000Z</time></trkpt>
        <trkpt lat="29.6768869" lon="104.724876"><ele>593.82</ele><time>2026-07-17T21:22:33.000Z</time></trkpt>
        <trkpt lat="29.6767889" lon="104.7248054"><ele>594.8</ele><time>2026-07-17T21:22:45.000Z</time></trkpt>
        <trkpt lat="29.6767124" lon="104.7247174"><ele>595.66</ele><time>2026-07-17T21:22:53.000Z</time></trkpt>
        <trkpt lat="29.6766607" lon="104.7246246"><ele>596.28</ele><time>2026-07-17T21:23:03.000Z</time></trkpt>
        <trkpt lat="29.676608" lon="104.7245266"><ele>596.63</ele><time>2026-07-17T21:23:11.000Z</time></trkpt>
        <trkpt lat="29.6765919" lon="104.7244422"><ele>596.79</ele><time>2026-07-17T21:23:19.000Z</time></trkpt>
        <trkpt lat="29.6765919" lon="104.7244422"><ele>596.79</ele><time>2026-07-17T21:23:58.000Z</time></trkpt>
        <trkpt lat="29.6765919" lon="104.7244422"><ele>596.79</ele><time>2026-07-17T21:25:06.000Z</time></trkpt>
        <trkpt lat="29.6765919" lon="104.7244422"><ele>596.79</ele><time>2026-07-17T21:25:38.000Z</time></trkpt>
        <trkpt lat="29.6765117" lon="104.72442"><ele>596.88</ele><time>2026-07-17T21:26:46.000Z</time></trkpt>
        <trkpt lat="29.6765117" lon="104.72442"><ele>596.88</ele><time>2026-07-17T21:27:07.000Z</time></trkpt>
        <trkpt lat="29.6764583" lon="104.7243267"><ele>597.62</ele><time>2026-07-17T21:27:21.000Z</time></trkpt>
        <trkpt lat="29.6764177" lon="104.7242206"><ele>597.35</ele><time>2026-07-17T21:27:53.000Z</time></trkpt>
        <trkpt lat="29.67636" lon="104.7241317"><ele>597.5</ele><time>2026-07-17T21:28:21.000Z</time></trkpt>
        <trkpt lat="29.6762795" lon="104.7240881"><ele>599.87</ele><time>2026-07-17T21:28:31.000Z</time></trkpt>
        <trkpt lat="29.6761848" lon="104.724083"><ele>601.47</ele><time>2026-07-17T21:28:43.000Z</time></trkpt>
        <trkpt lat="29.6760952" lon="104.7241308"><ele>602.6</ele><time>2026-07-17T21:28:53.000Z</time></trkpt>
        <trkpt lat="29.6760066" lon="104.7241956"><ele>603.2</ele><time>2026-07-17T21:29:03.000Z</time></trkpt>
        <trkpt lat="29.6759076" lon="104.7242141"><ele>603.55</ele><time>2026-07-17T21:29:13.000Z</time></trkpt>
        <trkpt lat="29.6758251" lon="104.7241709"><ele>603.57</ele><time>2026-07-17T21:29:21.000Z</time></trkpt>
        <trkpt lat="29.6757481" lon="104.7241109"><ele>603.45</ele><time>2026-07-17T21:29:31.000Z</time></trkpt>
        <trkpt lat="29.6756564" lon="104.724056"><ele>603.52</ele><time>2026-07-17T21:29:41.000Z</time></trkpt>
        <trkpt lat="29.6755661" lon="104.7240321"><ele>603.55</ele><time>2026-07-17T21:29:49.000Z</time></trkpt>
        <trkpt lat="29.6754731" lon="104.7240121"><ele>604</ele><time>2026-07-17T21:29:59.000Z</time></trkpt>
        <trkpt lat="29.6753744" lon="104.7239774"><ele>604.6</ele><time>2026-07-17T21:30:07.000Z</time></trkpt>
        <trkpt lat="29.67528" lon="104.7239705"><ele>605.68</ele><time>2026-07-17T21:30:17.000Z</time></trkpt>
        <trkpt lat="29.6751839" lon="104.7239753"><ele>608.27</ele><time>2026-07-17T21:30:27.000Z</time></trkpt>
        <trkpt lat="29.6750797" lon="104.723978"><ele>611.08</ele><time>2026-07-17T21:30:37.000Z</time></trkpt>
        <trkpt lat="29.67497" lon="104.7239725"><ele>613.11</ele><time>2026-07-17T21:30:47.000Z</time></trkpt>
        <trkpt lat="29.6748702" lon="104.7239583"><ele>612.85</ele><time>2026-07-17T21:31:01.000Z</time></trkpt>
        <trkpt lat="29.6747833" lon="104.7239085"><ele>610.2</ele><time>2026-07-17T21:31:11.000Z</time></trkpt>
        <trkpt lat="29.6747109" lon="104.7238325"><ele>607.62</ele><time>2026-07-17T21:31:21.000Z</time></trkpt>
        <trkpt lat="29.6746892" lon="104.7237179"><ele>604.39</ele><time>2026-07-17T21:31:29.000Z</time></trkpt>
        <trkpt lat="29.6747037" lon="104.7236017"><ele>600.91</ele><time>2026-07-17T21:31:41.000Z</time></trkpt>
        <trkpt lat="29.6747454" lon="104.7234973"><ele>598.24</ele><time>2026-07-17T21:31:51.000Z</time></trkpt>
        <trkpt lat="29.6747996" lon="104.7233954"><ele>596.93</ele><time>2026-07-17T21:32:03.000Z</time></trkpt>
        <trkpt lat="29.6747822" lon="104.7232961"><ele>595.58</ele><time>2026-07-17T21:32:11.000Z</time></trkpt>
        <trkpt lat="29.674701" lon="104.7232252"><ele>594.04</ele><time>2026-07-17T21:32:19.000Z</time></trkpt>
        <trkpt lat="29.6745941" lon="104.7232061"><ele>592.48</ele><time>2026-07-17T21:32:29.000Z</time></trkpt>
        <trkpt lat="29.6744851" lon="104.7231678"><ele>591.15</ele><time>2026-07-17T21:32:39.000Z</time></trkpt>
        <trkpt lat="29.6743882" lon="104.7231289"><ele>589.93</ele><time>2026-07-17T21:32:49.000Z</time></trkpt>
        <trkpt lat="29.6742916" lon="104.7231253"><ele>588.67</ele><time>2026-07-17T21:32:57.000Z</time></trkpt>
        <trkpt lat="29.6741894" lon="104.723134"><ele>587.48</ele><time>2026-07-17T21:33:07.000Z</time></trkpt>
        <trkpt lat="29.6740891" lon="104.7231225"><ele>587.53</ele><time>2026-07-17T21:33:19.000Z</time></trkpt>
        <trkpt lat="29.673995" lon="104.7230843"><ele>587.13</ele><time>2026-07-17T21:33:29.000Z</time></trkpt>
        <trkpt lat="29.6739434" lon="104.7229939"><ele>587.12</ele><time>2026-07-17T21:33:37.000Z</time></trkpt>
        <trkpt lat="29.6739095" lon="104.7228872"><ele>587.15</ele><time>2026-07-17T21:33:47.000Z</time></trkpt>
        <trkpt lat="29.6739095" lon="104.7228872"><ele>587.15</ele><time>2026-07-17T21:33:50.000Z</time></trkpt>
        <trkpt lat="29.6737326" lon="104.7223936"><ele>586.87</ele><time>2026-07-17T21:34:33.000Z</time></trkpt>
        <trkpt lat="29.6737326" lon="104.7223936"><ele>586.87</ele><time>2026-07-17T21:34:39.000Z</time></trkpt>
        <trkpt lat="29.6738156" lon="104.7223275"><ele>588.26</ele><time>2026-07-17T21:34:51.000Z</time></trkpt>
        <trkpt lat="29.6739123" lon="104.7222886"><ele>589.57</ele><time>2026-07-17T21:34:59.000Z</time></trkpt>
        <trkpt lat="29.6740126" lon="104.7222609"><ele>590.83</ele><time>2026-07-17T21:35:09.000Z</time></trkpt>
        <trkpt lat="29.6740645" lon="104.7222383"><ele>592.24</ele><time>2026-07-17T21:35:13.000Z</time></trkpt>
        <trkpt lat="29.6741091" lon="104.7221655"><ele>592.87</ele><time>2026-07-17T21:35:21.000Z</time></trkpt>
        <trkpt lat="29.6741063" lon="104.7220642"><ele>592.45</ele><time>2026-07-17T21:35:29.000Z</time></trkpt>
        <trkpt lat="29.6740561" lon="104.7219558"><ele>591.57</ele><time>2026-07-17T21:35:39.000Z</time></trkpt>
        <trkpt lat="29.6739994" lon="104.7218399"><ele>590.94</ele><time>2026-07-17T21:35:47.000Z</time></trkpt>
        <trkpt lat="29.6739546" lon="104.7217293"><ele>590.1</ele><time>2026-07-17T21:35:57.000Z</time></trkpt>
        <trkpt lat="29.6739481" lon="104.7216157"><ele>589.16</ele><time>2026-07-17T21:36:07.000Z</time></trkpt>
        <trkpt lat="29.6739664" lon="104.721509"><ele>587.54</ele><time>2026-07-17T21:36:15.000Z</time></trkpt>
        <trkpt lat="29.6739657" lon="104.7214052"><ele>586.15</ele><time>2026-07-17T21:36:23.000Z</time></trkpt>
        <trkpt lat="29.6739371" lon="104.7213022"><ele>584.88</ele><time>2026-07-17T21:36:33.000Z</time></trkpt>
        <trkpt lat="29.6739181" lon="104.721247"><ele>583.6</ele><time>2026-07-17T21:36:37.000Z</time></trkpt>
        <trkpt lat="29.673864" lon="104.7211739"><ele>582.74</ele><time>2026-07-17T21:36:49.000Z</time></trkpt>
        <trkpt lat="29.6737774" lon="104.7211266"><ele>582.16</ele><time>2026-07-17T21:37:05.000Z</time></trkpt>
        <trkpt lat="29.6737774" lon="104.7211266"><ele>582.16</ele><time>2026-07-17T21:37:08.000Z</time></trkpt>
        <trkpt lat="29.6733492" lon="104.7206549"><ele>581.92</ele><time>2026-07-17T21:38:15.000Z</time></trkpt>
        <trkpt lat="29.6733492" lon="104.7206549"><ele>581.92</ele><time>2026-07-17T21:38:17.000Z</time></trkpt>
        <trkpt lat="29.6733337" lon="104.7205479"><ele>586.47</ele><time>2026-07-17T21:38:29.000Z</time></trkpt>
        <trkpt lat="29.6733144" lon="104.7204415"><ele>591.17</ele><time>2026-07-17T21:38:37.000Z</time></trkpt>
        <trkpt lat="29.6732615" lon="104.72035"><ele>595.18</ele><time>2026-07-17T21:38:47.000Z</time></trkpt>
        <trkpt lat="29.6731878" lon="104.7202809"><ele>599.23</ele><time>2026-07-17T21:38:57.000Z</time></trkpt>
        <trkpt lat="29.6731443" lon="104.7202494"><ele>601.5</ele><time>2026-07-17T21:39:01.000Z</time></trkpt>
        <trkpt lat="29.6730823" lon="104.7201763"><ele>602.53</ele><time>2026-07-17T21:39:09.000Z</time></trkpt>
        <trkpt lat="29.6730317" lon="104.7200876"><ele>601.23</ele><time>2026-07-17T21:39:17.000Z</time></trkpt>
        <trkpt lat="29.6730097" lon="104.7199815"><ele>598.63</ele><time>2026-07-17T21:39:25.000Z</time></trkpt>
        <trkpt lat="29.672969" lon="104.7198665"><ele>595.57</ele><time>2026-07-17T21:39:37.000Z</time></trkpt>
        <trkpt lat="29.6729136" lon="104.7197574"><ele>591.71</ele><time>2026-07-17T21:39:55.000Z</time></trkpt>
        <trkpt lat="29.6728654" lon="104.719648"><ele>590.24</ele><time>2026-07-17T21:40:03.000Z</time></trkpt>
        <trkpt lat="29.672817" lon="104.7195352"><ele>589.45</ele><time>2026-07-17T21:40:11.000Z</time></trkpt>
        <trkpt lat="29.6727522" lon="104.7194501"><ele>589.56</ele><time>2026-07-17T21:40:19.000Z</time></trkpt>
        <trkpt lat="29.6726953" lon="104.7193567"><ele>590.69</ele><time>2026-07-17T21:40:27.000Z</time></trkpt>
        <trkpt lat="29.672626" lon="104.7192652"><ele>591.86</ele><time>2026-07-17T21:40:37.000Z</time></trkpt>
        <trkpt lat="29.6725509" lon="104.7191854"><ele>593.04</ele><time>2026-07-17T21:40:47.000Z</time></trkpt>
        <trkpt lat="29.6724568" lon="104.7191221"><ele>593.75</ele><time>2026-07-17T21:40:57.000Z</time></trkpt>
        <trkpt lat="29.6723779" lon="104.7190415"><ele>594.16</ele><time>2026-07-17T21:41:07.000Z</time></trkpt>
        <trkpt lat="29.6723484" lon="104.7189333"><ele>593.88</ele><time>2026-07-17T21:41:17.000Z</time></trkpt>
        <trkpt lat="29.6723494" lon="104.7188165"><ele>593.11</ele><time>2026-07-17T21:41:27.000Z</time></trkpt>
        <trkpt lat="29.6723563" lon="104.7186981"><ele>592.76</ele><time>2026-07-17T21:41:37.000Z</time></trkpt>
        <trkpt lat="29.6723548" lon="104.7185869"><ele>592.22</ele><time>2026-07-17T21:41:45.000Z</time></trkpt>
        <trkpt lat="29.6723281" lon="104.718479"><ele>592.13</ele><time>2026-07-17T21:41:53.000Z</time></trkpt>
        <trkpt lat="29.6722916" lon="104.7183999"><ele>592.8</ele><time>2026-07-17T21:42:01.000Z</time></trkpt>
        <trkpt lat="29.6722251" lon="104.7183137"><ele>593.49</ele><time>2026-07-17T21:42:13.000Z</time></trkpt>
        <trkpt lat="29.6721412" lon="104.7182294"><ele>593.75</ele><time>2026-07-17T21:42:25.000Z</time></trkpt>
        <trkpt lat="29.6720582" lon="104.7181404"><ele>593.82</ele><time>2026-07-17T21:42:35.000Z</time></trkpt>
        <trkpt lat="29.6719614" lon="104.7180818"><ele>593.9</ele><time>2026-07-17T21:42:43.000Z</time></trkpt>
        <trkpt lat="29.6718656" lon="104.718067"><ele>593.25</ele><time>2026-07-17T21:42:53.000Z</time></trkpt>
        <trkpt lat="29.6717715" lon="104.7180715"><ele>591.38</ele><time>2026-07-17T21:43:01.000Z</time></trkpt>
        <trkpt lat="29.6716674" lon="104.7180723"><ele>589.02</ele><time>2026-07-17T21:43:11.000Z</time></trkpt>
        <trkpt lat="29.6716038" lon="104.7180652"><ele>586.91</ele><time>2026-07-17T21:43:15.000Z</time></trkpt>
        <trkpt lat="29.671503" lon="104.7180452"><ele>585.7</ele><time>2026-07-17T21:43:23.000Z</time></trkpt>
        <trkpt lat="29.6713993" lon="104.7180152"><ele>585.31</ele><time>2026-07-17T21:43:31.000Z</time></trkpt>
        <trkpt lat="29.6713031" lon="104.7179946"><ele>584.7</ele><time>2026-07-17T21:43:39.000Z</time></trkpt>
        <trkpt lat="29.6712054" lon="104.7179596"><ele>584.44</ele><time>2026-07-17T21:43:47.000Z</time></trkpt>
        <trkpt lat="29.6710996" lon="104.7179468"><ele>585.29</ele><time>2026-07-17T21:43:57.000Z</time></trkpt>
        <trkpt lat="29.6710284" lon="104.7179278"><ele>586.84</ele><time>2026-07-17T21:44:05.000Z</time></trkpt>
        <trkpt lat="29.6709453" lon="104.7178857"><ele>587.86</ele><time>2026-07-17T21:44:15.000Z</time></trkpt>
        <trkpt lat="29.670865" lon="104.717825"><ele>588.43</ele><time>2026-07-17T21:44:25.000Z</time></trkpt>
        <trkpt lat="29.6707943" lon="104.7177413"><ele>589.24</ele><time>2026-07-17T21:44:35.000Z</time></trkpt>
        <trkpt lat="29.6707255" lon="104.717647"><ele>589.48</ele><time>2026-07-17T21:44:47.000Z</time></trkpt>
        <trkpt lat="29.6706618" lon="104.7175586"><ele>591.04</ele><time>2026-07-17T21:44:55.000Z</time></trkpt>
        <trkpt lat="29.670572" lon="104.7175028"><ele>592.31</ele><time>2026-07-17T21:45:07.000Z</time></trkpt>
        <trkpt lat="29.6705109" lon="104.7174933"><ele>593.34</ele><time>2026-07-17T21:45:11.000Z</time></trkpt>
        <trkpt lat="29.6704263" lon="104.7175155"><ele>594.27</ele><time>2026-07-17T21:45:21.000Z</time></trkpt>
        <trkpt lat="29.6703411" lon="104.7175698"><ele>594.97</ele><time>2026-07-17T21:45:31.000Z</time></trkpt>
        <trkpt lat="29.6702413" lon="104.7175973"><ele>595.93</ele><time>2026-07-17T21:45:41.000Z</time></trkpt>
        <trkpt lat="29.6701403" lon="104.7176414"><ele>596.99</ele><time>2026-07-17T21:45:51.000Z</time></trkpt>
        <trkpt lat="29.6700989" lon="104.7177312"><ele>597.51</ele><time>2026-07-17T21:46:01.000Z</time></trkpt>
        <trkpt lat="29.6701375" lon="104.7178215"><ele>595.92</ele><time>2026-07-17T21:46:09.000Z</time></trkpt>
        <trkpt lat="29.6701998" lon="104.7179264"><ele>594.23</ele><time>2026-07-17T21:46:17.000Z</time></trkpt>
        <trkpt lat="29.6702473" lon="104.7180375"><ele>593.27</ele><time>2026-07-17T21:46:27.000Z</time></trkpt>
        <trkpt lat="29.6702699" lon="104.7181229"><ele>593.11</ele><time>2026-07-17T21:46:33.000Z</time></trkpt>
        <trkpt lat="29.6702393" lon="104.7182176"><ele>593.02</ele><time>2026-07-17T21:46:43.000Z</time></trkpt>
        <trkpt lat="29.670161" lon="104.7182903"><ele>591.72</ele><time>2026-07-17T21:46:53.000Z</time></trkpt>
        <trkpt lat="29.6700673" lon="104.7183485"><ele>590.34</ele><time>2026-07-17T21:47:03.000Z</time></trkpt>
        <trkpt lat="29.6699809" lon="104.7184038"><ele>588.99</ele><time>2026-07-17T21:47:13.000Z</time></trkpt>
        <trkpt lat="29.6699643" lon="104.7185095"><ele>588.26</ele><time>2026-07-17T21:47:23.000Z</time></trkpt>
        <trkpt lat="29.6699844" lon="104.7186421"><ele>588.36</ele><time>2026-07-17T21:47:31.000Z</time></trkpt>
        <trkpt lat="29.6700023" lon="104.7187059"><ele>587.82</ele><time>2026-07-17T21:47:33.000Z</time></trkpt>
        <trkpt lat="29.6700206" lon="104.7188006"><ele>587.42</ele><time>2026-07-17T21:47:41.000Z</time></trkpt>
        <trkpt lat="29.6700348" lon="104.7188677"><ele>587.41</ele><time>2026-07-17T21:47:47.000Z</time></trkpt>
        <trkpt lat="29.670049" lon="104.7189618"><ele>586.98</ele><time>2026-07-17T21:47:57.000Z</time></trkpt>
        <trkpt lat="29.6700491" lon="104.7190721"><ele>586.9</ele><time>2026-07-17T21:48:11.000Z</time></trkpt>
        <trkpt lat="29.6700327" lon="104.7191787"><ele>586.99</ele><time>2026-07-17T21:48:21.000Z</time></trkpt>
        <trkpt lat="29.6699808" lon="104.7192801"><ele>586.86</ele><time>2026-07-17T21:48:31.000Z</time></trkpt>
        <trkpt lat="29.6699808" lon="104.7192801"><ele>586.86</ele><time>2026-07-17T21:48:39.000Z</time></trkpt>
        <trkpt lat="29.6697161" lon="104.7194568"><ele>586.49</ele><time>2026-07-17T21:48:53.000Z</time></trkpt>
        <trkpt lat="29.6697161" lon="104.7194568"><ele>586.49</ele><time>2026-07-17T21:48:57.000Z</time></trkpt>
        <trkpt lat="29.6696223" lon="104.7195035"><ele>585.94</ele><time>2026-07-17T21:49:07.000Z</time></trkpt>
        <trkpt lat="29.6695337" lon="104.7195477"><ele>585.49</ele><time>2026-07-17T21:49:15.000Z</time></trkpt>
        <trkpt lat="29.6694564" lon="104.7196041"><ele>584.89</ele><time>2026-07-17T21:49:23.000Z</time></trkpt>
        <trkpt lat="29.6693734" lon="104.7196616"><ele>584.04</ele><time>2026-07-17T21:49:33.000Z</time></trkpt>
        <trkpt lat="29.6693264" lon="104.7197516"><ele>583.68</ele><time>2026-07-17T21:49:41.000Z</time></trkpt>
        <trkpt lat="29.6692976" lon="104.719857"><ele>584.42</ele><time>2026-07-17T21:49:51.000Z</time></trkpt>
        <trkpt lat="29.6692873" lon="104.7199661"><ele>585.79</ele><time>2026-07-17T21:50:03.000Z</time></trkpt>
        <trkpt lat="29.6692204" lon="104.7200484"><ele>586.95</ele><time>2026-07-17T21:50:19.000Z</time></trkpt>
        <trkpt lat="29.6691206" lon="104.7200683"><ele>587.19</ele><time>2026-07-17T21:50:35.000Z</time></trkpt>
        <trkpt lat="29.6691323" lon="104.7201339"><ele>587.67</ele><time>2026-07-17T21:50:47.000Z</time></trkpt>
        <trkpt lat="29.6691938" lon="104.7202138"><ele>587.6</ele><time>2026-07-17T21:50:55.000Z</time></trkpt>
        <trkpt lat="29.6692764" lon="104.7202935"><ele>587.55</ele><time>2026-07-17T21:51:05.000Z</time></trkpt>
        <trkpt lat="29.6693629" lon="104.7203657"><ele>587.62</ele><time>2026-07-17T21:51:17.000Z</time></trkpt>
        <trkpt lat="29.6694281" lon="104.7204486"><ele>588.64</ele><time>2026-07-17T21:51:27.000Z</time></trkpt>
        <trkpt lat="29.6694895" lon="104.7205517"><ele>590.13</ele><time>2026-07-17T21:51:37.000Z</time></trkpt>
        <trkpt lat="29.6695294" lon="104.7206641"><ele>592.18</ele><time>2026-07-17T21:51:45.000Z</time></trkpt>
        <trkpt lat="29.6695341" lon="104.7207849"><ele>594.08</ele><time>2026-07-17T21:51:55.000Z</time></trkpt>
        <trkpt lat="29.6694909" lon="104.7208824"><ele>595.98</ele><time>2026-07-17T21:52:03.000Z</time></trkpt>
        <trkpt lat="29.6694253" lon="104.7209641"><ele>596.55</ele><time>2026-07-17T21:52:13.000Z</time></trkpt>
        <trkpt lat="29.6693505" lon="104.7210607"><ele>595.19</ele><time>2026-07-17T21:52:23.000Z</time></trkpt>
        <trkpt lat="29.6692944" lon="104.7211677"><ele>593.39</ele><time>2026-07-17T21:52:33.000Z</time></trkpt>
        <trkpt lat="29.6692601" lon="104.7212834"><ele>592.06</ele><time>2026-07-17T21:52:41.000Z</time></trkpt>
        <trkpt lat="29.6692551" lon="104.7213502"><ele>590.92</ele><time>2026-07-17T21:52:53.000Z</time></trkpt>
        <trkpt lat="29.6692623" lon="104.7214422"><ele>591.6</ele><time>2026-07-17T21:53:09.000Z</time></trkpt>
        <trkpt lat="29.6693118" lon="104.7215368"><ele>592.76</ele><time>2026-07-17T21:53:19.000Z</time></trkpt>
        <trkpt lat="29.6693787" lon="104.7216185"><ele>592.48</ele><time>2026-07-17T21:53:27.000Z</time></trkpt>
        <trkpt lat="29.6694549" lon="104.7216952"><ele>591.41</ele><time>2026-07-17T21:53:37.000Z</time></trkpt>
        <trkpt lat="29.6695056" lon="104.7217944"><ele>590.46</ele><time>2026-07-17T21:53:45.000Z</time></trkpt>
        <trkpt lat="29.6694573" lon="104.7218899"><ele>590.26</ele><time>2026-07-17T21:53:55.000Z</time></trkpt>
        <trkpt lat="29.669392" lon="104.7219794"><ele>590.36</ele><time>2026-07-17T21:54:03.000Z</time></trkpt>
        <trkpt lat="29.6693286" lon="104.7220539"><ele>590.34</ele><time>2026-07-17T21:54:11.000Z</time></trkpt>
        <trkpt lat="29.6693061" lon="104.7221606"><ele>589.72</ele><time>2026-07-17T21:54:21.000Z</time></trkpt>
        <trkpt lat="29.6693331" lon="104.7222625"><ele>588.68</ele><time>2026-07-17T21:54:29.000Z</time></trkpt>
        <trkpt lat="29.6694121" lon="104.7223413"><ele>587.7</ele><time>2026-07-17T21:54:37.000Z</time></trkpt>
        <trkpt lat="29.6694954" lon="104.7223687"><ele>587.53</ele><time>2026-07-17T21:54:43.000Z</time></trkpt>
        <trkpt lat="29.669592" lon="104.7223946"><ele>587.77</ele><time>2026-07-17T21:54:51.000Z</time></trkpt>
        <trkpt lat="29.6696895" lon="104.7224046"><ele>587.83</ele><time>2026-07-17T21:54:59.000Z</time></trkpt>
        <trkpt lat="29.6697901" lon="104.7224169"><ele>588.59</ele><time>2026-07-17T21:55:07.000Z</time></trkpt>
        <trkpt lat="29.6698882" lon="104.7224431"><ele>590.19</ele><time>2026-07-17T21:55:17.000Z</time></trkpt>
        <trkpt lat="29.6699784" lon="104.7225004"><ele>591.4</ele><time>2026-07-17T21:55:27.000Z</time></trkpt>
        <trkpt lat="29.670009" lon="104.7226151"><ele>592.3</ele><time>2026-07-17T21:55:35.000Z</time></trkpt>
        <trkpt lat="29.6699993" lon="104.7227312"><ele>592.9</ele><time>2026-07-17T21:55:47.000Z</time></trkpt>
        <trkpt lat="29.669987" lon="104.7228577"><ele>592.6</ele><time>2026-07-17T21:55:57.000Z</time></trkpt>
        <trkpt lat="29.6699829" lon="104.7229855"><ele>591.4</ele><time>2026-07-17T21:56:07.000Z</time></trkpt>
        <trkpt lat="29.6699214" lon="104.7230896"><ele>590.28</ele><time>2026-07-17T21:56:15.000Z</time></trkpt>
        <trkpt lat="29.669826" lon="104.723164"><ele>588.95</ele><time>2026-07-17T21:56:25.000Z</time></trkpt>
        <trkpt lat="29.6697229" lon="104.7231819"><ele>587.73</ele><time>2026-07-17T21:56:35.000Z</time></trkpt>
        <trkpt lat="29.6696245" lon="104.7231699"><ele>587.2</ele><time>2026-07-17T21:56:43.000Z</time></trkpt>
        <trkpt lat="29.669519" lon="104.72314"><ele>587.07</ele><time>2026-07-17T21:56:51.000Z</time></trkpt>
        <trkpt lat="29.6694331" lon="104.7230785"><ele>587.13</ele><time>2026-07-17T21:57:01.000Z</time></trkpt>
        <trkpt lat="29.6693417" lon="104.723011"><ele>587.72</ele><time>2026-07-17T21:57:11.000Z</time></trkpt>
        <trkpt lat="29.6692413" lon="104.7229672"><ele>588.18</ele><time>2026-07-17T21:57:21.000Z</time></trkpt>
        <trkpt lat="29.6691452" lon="104.7229605"><ele>588.02</ele><time>2026-07-17T21:57:29.000Z</time></trkpt>
        <trkpt lat="29.6690448" lon="104.7229721"><ele>587.02</ele><time>2026-07-17T21:57:37.000Z</time></trkpt>
        <trkpt lat="29.6689492" lon="104.7230321"><ele>585.38</ele><time>2026-07-17T21:57:47.000Z</time></trkpt>
        <trkpt lat="29.6688644" lon="104.7230952"><ele>583.37</ele><time>2026-07-17T21:57:55.000Z</time></trkpt>
        <trkpt lat="29.6687921" lon="104.7231656"><ele>581.14</ele><time>2026-07-17T21:58:03.000Z</time></trkpt>
        <trkpt lat="29.668725" lon="104.723249"><ele>579.32</ele><time>2026-07-17T21:58:11.000Z</time></trkpt>
        <trkpt lat="29.66869" lon="104.7232968"><ele>577.98</ele><time>2026-07-17T21:58:21.000Z</time></trkpt>
        <trkpt lat="29.6686835" lon="104.7234065"><ele>577.9</ele><time>2026-07-17T21:58:31.000Z</time></trkpt>
        <trkpt lat="29.668684" lon="104.7235261"><ele>577.17</ele><time>2026-07-17T21:58:39.000Z</time></trkpt>
        <trkpt lat="29.6686642" lon="104.7236403"><ele>576.49</ele><time>2026-07-17T21:58:49.000Z</time></trkpt>
        <trkpt lat="29.6686126" lon="104.723743"><ele>576.45</ele><time>2026-07-17T21:58:59.000Z</time></trkpt>
        <trkpt lat="29.6685784" lon="104.7238557"><ele>576.73</ele><time>2026-07-17T21:59:09.000Z</time></trkpt>
        <trkpt lat="29.6685912" lon="104.7239636"><ele>576.76</ele><time>2026-07-17T21:59:17.000Z</time></trkpt>
        <trkpt lat="29.6686374" lon="104.7240604"><ele>576.13</ele><time>2026-07-17T21:59:25.000Z</time></trkpt>
        <trkpt lat="29.6687007" lon="104.7241583"><ele>575.26</ele><time>2026-07-17T21:59:35.000Z</time></trkpt>
        <trkpt lat="29.6687647" lon="104.7242585"><ele>574.76</ele><time>2026-07-17T21:59:47.000Z</time></trkpt>
        <trkpt lat="29.66883" lon="104.724356"><ele>574.13</ele><time>2026-07-17T21:59:59.000Z</time></trkpt>
        <trkpt lat="29.6689056" lon="104.7244375"><ele>573.09</ele><time>2026-07-17T22:00:09.000Z</time></trkpt>
        <trkpt lat="29.6689528" lon="104.7245458"><ele>572.02</ele><time>2026-07-17T22:00:19.000Z</time></trkpt>
        <trkpt lat="29.6689549" lon="104.7246613"><ele>571.11</ele><time>2026-07-17T22:00:29.000Z</time></trkpt>
        <trkpt lat="29.6689549" lon="104.7246613"><ele>571.11</ele><time>2026-07-17T22:00:29.000Z</time></trkpt>
      </trkseg>
  </trk>
</gpx>